Flight Track Log - Related Links

Times and Time Zones

All times are in EDT time to prevent confusion due to time zone crossing. See the 9M-MNB flight status page for this flight to view local times or setup timezone preferences in your user account.

Time Position Orientation Groundspeed Altitude Reporting Facility
EDT Latitude Longitude Course Direction KTS MPH feet Rate Location/Type
Wed 07:23:57 AM 51.4650 -0.4180 89° East 166 191 1,000  Level FlightAware ADS-B
Wed 07:24:21 AM 51.4733 -0.3884 89° East 166 191 100 1,440 Descending FlightAware UK
Wed 07:24:22 AM 51.4720 -0.3910 89° East 168 193 1,600 1,000 Climbing FlightAware ADS-B
Wed 07:24:45 AM 51.4855 -0.3648 89° East 172 198 500 1,000 Descending FlightAware UK
Wed 07:24:52 AM 51.4870 -0.3620 89° East 179 206 2,100 4,909 Climbing FlightAware ADS-B
Wed 07:25:07 AM 51.4960 -0.3450 50° Northeast 205 236 2,300 -1,714 Climbing FlightAware ADS-B
Wed 07:25:27 AM 51.5114 -0.3147 50° Northeast 218 251 1,100 900 Descending FlightAware UK
Wed 07:25:27 AM 51.5090 -0.3180 50° Northeast 228 262 2,600 4,909 Climbing FlightAware ADS-B
Wed 07:26:00 AM 51.5330 -0.2682 52° Northeast 241 277 3,800 2,049 Climbing FlightAware ADS-B
Wed 07:26:08 AM 51.5361 -0.2548 70° East 245 282 4,000 2,000 Climbing FlightAware ADS-B
Wed 07:26:24 AM 51.5417 -0.2269 72° East 250 288 4,600 2,000 Climbing FlightAware ADS-B
Wed 07:26:32 AM 51.5457 -0.2126 66° East 259 298 4,800 1,000 Climbing FlightAware ADS-B
Wed 07:26:36 AM 51.5484 -0.2067 54° Northeast 264 304 4,800  Level FlightAware ADS-B
Wed 07:26:39 AM 51.5510 -0.2024 45° Northeast 267 307 4,800 1,091 Level FlightAware ADS-B
Wed 07:26:47 AM 51.5596 -0.1936 33° Northeast 270 311 5,000 1,714 Climbing FlightAware ADS-B
Wed 07:26:53 AM 51.5663 -0.1903 17° North 271 312 5,200 2,667 Climbing FlightAware ADS-B
Wed 07:27:05 AM 51.5809 -0.1858 11° North 271 312 5,800 2,250 Climbing FlightAware ADS-B
Wed 07:27:17 AM 51.5957 -0.1803 13° North 272 313 6,100 889 Climbing FlightAware ADS-B
Wed 07:27:32 AM 51.6142 -0.1721 15° North 271 312 6,200 194 Climbing FlightAware ADS-B
Wed 07:27:48 AM 51.6337 -0.1626 17° North 272 313 6,200  Level FlightAware ADS-B
Wed 07:28:05 AM 51.6533 -0.1528 17° North 275 316 6,200  Level FlightAware ADS-B
Wed 07:28:20 AM 51.6720 -0.1437 17° North 274 315 6,200  Level FlightAware ADS-B
Wed 07:28:36 AM 51.6911 -0.1350 16° North 273 314 6,200 400 Level FlightAware ADS-B
Wed 07:28:50 AM 51.7083 -0.1272 16° North 274 315 6,400 667 Climbing FlightAware ADS-B
Wed 07:28:54 AM 51.7131 -0.1245 20° North 275 316 6,400 857 Level FlightAware ADS-B
Wed 07:28:57 AM 51.7166 -0.1219 25° Northeast 278 320 6,500 2,000 Climbing FlightAware ADS-B
Wed 07:29:00 AM 51.7205 -0.1181 31° Northeast 280 322 6,600 2,000 Climbing FlightAware ADS-B
Wed 07:29:03 AM 51.7236 -0.1143 37° Northeast 281 323 6,700 2,000 Climbing FlightAware ADS-B
Wed 07:29:06 AM 51.7265 -0.1099 43° Northeast 282 325 6,800 2,571 Climbing FlightAware ADS-B
Wed 07:29:10 AM 51.7298 -0.1038 49° Northeast 284 327 7,000 2,571 Climbing FlightAware ADS-B
Wed 07:29:13 AM 51.7321 -0.0981 57° Northeast 284 327 7,100 2,571 Climbing FlightAware ADS-B
Wed 07:29:17 AM 51.7340 -0.0923 62° Northeast 285 328 7,300 3,000 Climbing FlightAware ADS-B
Wed 07:29:21 AM 51.7362 -0.0830 69° East 284 327 7,500 2,667 Climbing FlightAware ADS-B
Wed 07:29:26 AM 51.7378 -0.0735 75° East 284 327 7,700 2,211 Climbing FlightAware ADS-B
Wed 07:29:40 AM 51.7413 -0.0449 79° East 286 329 8,200 2,069 Climbing FlightAware ADS-B
Wed 07:29:55 AM 51.7458 -0.0134 77° East 290 334 8,700 2,129 Climbing FlightAware ADS-B
Wed 07:30:11 AM 51.7512 0.0204 76° East 296 341 9,300 2,294 Climbing FlightAware ADS-B
Wed 07:30:29 AM 51.7575 0.0587 75° East 299 344 10,000 -706 Climbing FlightAware ADS-B
Wed 07:30:45 AM 51.7634 0.0951 75° East 294 338 8,900 1,355 Descending FlightAware UK
Wed 07:31:00 AM 51.7693 0.1287 75° East 322 371 10,700 667 Climbing FlightAware ADS-B
Wed 07:31:21 AM 51.7783 0.1800 75° East 328 377 9,300 581 Descending FlightAware UK
Wed 07:31:31 AM 51.7828 0.2042 75° East 352 405 11,000 833 Climbing FlightAware ADS-B
Wed 07:31:57 AM 51.7951 0.2731 75° East 362 417 9,800 909 Descending FlightAware UK
Wed 07:32:04 AM 51.7984 0.2914 75° East 384 442 11,500 4,500 Climbing FlightAware ADS-B
Wed 07:32:25 AM 51.8098 0.3498 72° East 396 456 11,900 1,538 Climbing FlightAware ADS-B
Wed 07:32:43 AM 51.8228 0.3974 66° East 400 460 12,500 -789 Climbing FlightAware ADS-B
Wed 07:33:03 AM 51.8399 0.4543 66° East 388 447 11,400 1,600 Descending FlightAware UK
Wed 07:33:13 AM 51.8475 0.4797 66° East 411 473 13,300 3,957 Climbing FlightAware ADS-B
Wed 07:33:50 AM 51.8787 0.5845 64° Northeast 418 481 14,500 476 Climbing FlightAware ADS-B
Wed 07:34:16 AM 51.9004 0.6565 64° Northeast 400 460 13,800 1,818 Descending FlightAware UK
Wed 07:34:23 AM 51.9063 0.6769 64° Northeast 426 490 15,500 1,800 Climbing FlightAware ADS-B
Wed 07:34:46 AM 51.9258 0.7429 64° Northeast 406 467 14,700 1,800 Descending FlightAware UK
Wed 07:34:53 AM 51.9317 0.7645 64° Northeast 431 496 16,400 3,600 Climbing FlightAware ADS-B
Wed 07:35:26 AM 51.9589 0.8635 66° East 443 510 17,100 -340 Climbing FlightAware ADS-B
Wed 07:35:46 AM 51.9756 0.9238 66° East 416 479 16,100 1,455 Descending FlightAware UK
Wed 07:35:59 AM 51.9862 0.9636 66° East 451 519 17,900 1,200 Climbing FlightAware ADS-B
Wed 07:36:16 AM 52.0006 1.0166 66° East 420 483 16,700 1,500 Descending FlightAware UK
Wed 07:36:31 AM 52.0130 1.0640 66° East 459 528 18,700 1,400 Climbing FlightAware ADS-B
Wed 07:36:46 AM 52.0256 1.1115 66° East 424 488 17,400 1,297 Descending FlightAware UK
Wed 07:37:08 AM 52.0440 1.1813 66° East 468 539 19,500 3,346 Climbing FlightAware ADS-B
Wed 07:37:38 AM 52.0699 1.2808 67° East 471 542 20,300 -321 Climbing FlightAware ADS-B
Wed 07:38:04 AM 52.0921 1.3652 67° East 436 502 19,200 1,235 Descending FlightAware UK
Wed 07:38:12 AM 52.0990 1.3928 67° East 480 552 21,000 3,692 Climbing FlightAware ADS-B
Wed 07:38:43 AM 52.1251 1.4961 68° East 488 562 21,600 -577 Climbing FlightAware ADS-B
Wed 07:39:04 AM 52.1419 1.5688 68° East 442 509 20,500 -1,077 Descending FlightAware UK
Wed 07:39:22 AM 52.1509 1.6355 78° East 446 513 20,900 4,500 Climbing FlightAware UK
Wed 07:39:32 AM 52.1550 1.6630 78° East 500 575 22,600 1,200 Climbing FlightAware ADS-B
Wed 07:39:52 AM 52.1662 1.7457 78° East 450 518 21,500 1,200 Descending FlightAware UK
Wed 07:40:17 AM 52.1780 1.8330 78° East 508 585 23,500 1,000 Climbing FlightAware ADS-B
Wed 07:40:34 AM 52.1880 1.9016 78° East 454 522 22,200 -1,543 Descending FlightAware UK
Wed 07:40:52 AM 52.1975 1.9708 77° East 456 525 22,600 4,957 Climbing FlightAware UK
Wed 07:40:57 AM 52.1990 1.9800 77° East 516 594 24,100 750 Climbing FlightAware ADS-B
Wed 07:41:16 AM 52.2098 2.0614 77° East 460 529 22,900 -1,297 Descending FlightAware UK
Wed 07:41:34 AM 52.2196 2.1312 77° East 460 529 23,300 5,429 Climbing FlightAware UK
Wed 07:41:37 AM 52.2200 2.1360 77° East 524 603 24,800 2,750 Climbing FlightAware ADS-B
Wed 07:42:22 AM 52.2420 2.2960 77° East 531 611 25,500 -286 Climbing FlightAware ADS-B
Wed 07:42:40 AM 52.2547 2.3875 77° East 468 539 24,500 1,050 Descending FlightAware UK
Wed 07:43:02 AM 52.2650 2.4590 77° East 536 617 26,200 649 Climbing FlightAware ADS-B
Wed 07:43:17 AM 52.2746 2.5299 77° East 474 545 24,900 -1,385 Descending FlightAware UK
Wed 07:43:41 AM 52.2880 2.6259 77° East 474 545 25,300 857 Climbing FlightAware UK
Wed 07:43:59 AM 52.2979 2.6980 77° East 478 550 25,500 3,677 Climbing FlightAware UK
Wed 07:44:12 AM 52.3020 2.7310 77° East 547 629 27,200 1,000 Climbing FlightAware ADS-B
Wed 07:44:29 AM 52.3141 2.8189 77° East 480 552 26,000 -1,543 Descending FlightAware UK
Wed 07:44:47 AM 52.3239 2.8916 78° East 480 552 26,300 4,957 Climbing FlightAware UK
Wed 07:44:52 AM 52.3250 2.9000 78° East 551 634 27,900 800 Climbing FlightAware ADS-B
Wed 07:45:17 AM 52.3370 3.0151 78° East 484 557 26,700 -1,256 Descending FlightAware UK
Wed 07:45:35 AM 52.3402 3.0906 86° East 484 557 27,000 5,400 Climbing FlightAware UK
Wed 07:45:37 AM 52.3400 3.0940 86° East 559 643 28,500 3,000 Climbing FlightAware ADS-B
Wed 07:46:17 AM 52.3490 3.2640 85° East 562 647 29,100 -146 Climbing FlightAware ADS-B
Wed 07:46:59 AM 52.3582 3.4462 85° East 490 564 28,300 933 Descending FlightAware UK
Wed 07:47:02 AM 52.3580 3.4470 85° East 561 646 29,800 667 Climbing FlightAware ADS-B
Wed 07:47:17 AM 52.3620 3.5221 85° East 490 564 28,500 1,067 Descending FlightAware UK
Wed 07:47:47 AM 52.3680 3.6430 85° East 561 646 30,600 1,091 Climbing FlightAware ADS-B
Wed 07:48:23 AM 52.3751 3.8007 85° East 488 562 29,700 1,050 Descending FlightAware UK
Wed 07:48:27 AM 52.3750 3.8090 85° East 557 641 31,300 1,667 Climbing FlightAware ADS-B
Wed 07:48:59 AM 52.3816 3.9500 85° East 484 557 30,700 1,333 Descending FlightAware UK
Wed 07:49:12 AM 52.3840 3.9930 85° East 549 632 32,300 2,151 Climbing FlightAware ADS-B
Wed 07:49:52 AM 52.3910 4.1580 86° East 554 638 32,600 -1,017 Climbing FlightAware ADS-B
Wed 07:50:11 AM 52.3953 4.2494 86° East 484 557 31,300 750 Descending FlightAware UK
Wed 07:50:32 AM 52.3980 4.3310 86° East 556 640 33,100 1,000 Climbing FlightAware ADS-B
Wed 07:51:05 AM 52.4044 4.4752 86° East 484 557 32,200 1,200 Descending FlightAware UK
Wed 07:51:17 AM 52.4060 4.5100 86° East 549 632 34,000 3,115 Climbing FlightAware ADS-B
Wed 07:51:57 AM 52.4120 4.6810 87° East 540 621 34,900 -417 Climbing FlightAware ADS-B
Wed 07:52:29 AM 52.4172 4.8189 87° East 482 555 33,500 133 Descending FlightAware UK
Wed 07:52:42 AM 52.4190 4.8600 87° East 540 621 35,000 1,698 Climbing FlightAware ADS-B
Wed 07:53:22 AM 52.4250 5.0210 86° East 539 620 35,000 -1,525 Level FlightAware ADS-B
Wed 07:53:41 AM 52.4250 5.1101 86° East 482 555 33,500 -2,432 Descending FlightAware UK
Wed 07:53:59 AM 52.4283 5.1838 86° East 482 555 33,500 4,286 Level FlightAware UK
Wed 07:54:02 AM 52.4310 5.1860 86° East 540 621 35,000 2,093 Climbing FlightAware ADS-B
Wed 07:54:42 AM 52.4360 5.3450 87° East 540 621 35,000 -1,200 Level FlightAware ADS-B
Wed 07:55:17 AM 52.4394 5.5021 87° East 484 557 33,500  Descending FlightAware UK
Wed 07:55:22 AM 52.4420 5.5130 87° East 539 620 35,000  Climbing FlightAware ADS-B
Wed 07:55:47 AM 52.4436 5.6245 87° East 482 555 33,500  Descending FlightAware UK
Wed 07:56:12 AM 52.4480 5.7150 87° East 539 620 35,000  Climbing FlightAware ADS-B
Wed 07:56:29 AM 52.4480 5.7959 87° East 482 555 33,500 -2,571 Descending FlightAware UK
Wed 07:56:47 AM 52.4503 5.8693 87° East 484 557 33,500 4,500 Level FlightAware UK
Wed 07:56:49 AM 52.4520 5.8560 87° East 538 619 35,000 1,915 Climbing FlightAware ADS-B
Wed 07:57:34 AM 52.4570 6.0390 87° East 538 619 35,000  Level FlightAware ADS-B
Wed 07:58:14 AM 52.4620 6.2150 87° East 538 619 35,000  Level FlightAware ADS-B
Wed 07:58:57 AM 52.4660 6.3870 88° East 538 619 35,000  Level FlightAware ADS-B
Wed 07:59:42 AM 52.4700 6.5690 88° East 537 618 35,000  Level FlightAware ADS-B
Wed 08:00:22 AM 52.4740 6.7260 88° East 537 618 35,000  Level FlightAware ADS-B
Wed 08:01:02 AM 52.4770 6.8880 88° East 537 618 35,000  Level FlightAware ADS-B
Wed 08:01:47 AM 52.4810 7.0740 88° East 536 617 35,000  Level FlightAware ADS-B
Wed 08:02:27 AM 52.4830 7.2370 89° East 535 616 35,000  Level FlightAware ADS-B
Wed 08:03:12 AM 52.4860 7.4100 88° East 534 615 35,000  Level FlightAware ADS-B
Wed 08:03:52 AM 52.4890 7.5810 88° East 533 613 35,000  Level FlightAware ADS-B
Wed 08:04:32 AM 52.4910 7.7440 89° East 531 611 35,000  Level FlightAware ADS-B
Wed 08:05:17 AM 52.4930 7.9250 89° East 529 609 35,000  Level FlightAware ADS-B
Wed 08:05:52 AM 52.4940 8.0620 89° East 527 606 35,000  Level FlightAware ADS-B
Wed 08:06:37 AM 52.4960 8.2460 89° East 526 605 35,000  Level FlightAware ADS-B
Wed 08:07:22 AM 52.4980 8.4200 89° East 526 605 35,000  Level FlightAware ADS-B
Wed 08:08:02 AM 52.4990 8.5780 89° East 527 606 35,000  Level FlightAware ADS-B
Wed 08:08:47 AM 52.4990 8.7620 90° East 528 608 35,000  Level FlightAware ADS-B
Wed 08:09:27 AM 52.5000 8.9220 89° East 526 605 35,000  Level FlightAware ADS-B
Wed 08:10:12 AM 52.5000 9.0900 90° East 524 603 35,000  Level FlightAware ADS-B
Wed 08:10:52 AM 52.5000 9.2570 90° East 524 603 35,000  Level FlightAware ADS-B
Wed 08:11:32 AM 52.5000 9.4130 90° East 524 603 35,000  Level FlightAware ADS-B
Wed 08:12:17 AM 52.5000 9.5810 90° East 525 604 35,000  Level FlightAware ADS-B
Wed 08:12:57 AM 52.4990 9.7570 90° East 526 605 35,000  Level FlightAware ADS-B
Wed 08:13:37 AM 52.4990 9.9140 90° East 525 604 35,000  Level FlightAware ADS-B
Wed 08:14:22 AM 52.4970 10.0910 91° East 523 602 35,000  Level FlightAware ADS-B
Wed 08:15:02 AM 52.4960 10.2440 91° East 524 603 35,000  Level FlightAware ADS-B
Wed 08:15:47 AM 52.4950 10.3980 91° East 524 603 35,000  Level FlightAware ADS-B
Wed 08:16:27 AM 52.4930 10.5680 91° East 524 603 35,000  Level FlightAware ADS-B
Wed 08:17:07 AM 52.4910 10.7340 91° East 524 603 35,000  Level FlightAware ADS-B
Wed 08:17:52 AM 52.4890 10.9020 91° East 521 600 35,000  Level FlightAware ADS-B
Wed 08:18:32 AM 52.4870 11.0540 91° East 519 597 35,000  Level FlightAware ADS-B
Wed 08:19:17 AM 52.4830 11.2340 92° East 517 595 35,000  Level FlightAware ADS-B
Wed 08:19:57 AM 52.4760 11.3940 94° East 518 596 35,000  Level FlightAware ADS-B
Wed 08:20:37 AM 52.4680 11.5540 95° East 518 596 35,000  Level FlightAware ADS-B
Wed 08:21:22 AM 52.4610 11.7280 94° East 517 595 35,000  Level FlightAware ADS-B
Wed 08:22:02 AM 52.4540 11.8840 94° East 517 595 35,000  Level FlightAware ADS-B
Wed 08:22:37 AM 52.4470 12.0250 95° East 515 593 35,000  Level FlightAware ADS-B
Wed 08:23:22 AM 52.4390 12.1990 94° East 513 590 35,000  Level FlightAware ADS-B
Wed 08:23:57 AM 52.4320 12.3340 95° East 514 592 35,000  Level FlightAware ADS-B
Wed 08:24:47 AM 52.4220 12.5420 94° East 515 593 35,000  Level FlightAware ADS-B
Wed 08:25:27 AM 52.4140 12.6860 95° East 515 593 35,000  Level FlightAware ADS-B
Wed 08:26:07 AM 52.4050 12.8490 95° East 511 588 35,000  Level FlightAware ADS-B
Wed 08:26:52 AM 52.3960 13.0210 95° East 512 589 35,000  Level FlightAware ADS-B
Wed 08:27:32 AM 52.3870 13.1740 95° East 513 590 35,000  Level FlightAware ADS-B
Wed 08:28:17 AM 52.3770 13.3400 96° East 514 592 35,000  Level FlightAware ADS-B
Wed 08:28:57 AM 52.3680 13.5050 95° East 514 592 35,000  Level FlightAware ADS-B
Wed 08:29:37 AM 52.3580 13.6560 96° East 512 589 35,000  Level FlightAware ADS-B
Wed 08:30:22 AM 52.3480 13.8310 95° East 512 589 35,000  Level FlightAware ADS-B
Wed 08:31:02 AM 52.3380 13.9850 96° East 511 588 35,000  Level FlightAware ADS-B
Wed 08:31:42 AM 52.3280 14.1310 96° East 509 586 35,000  Level FlightAware ADS-B
Wed 08:32:27 AM 52.3170 14.3080 96° East 510 587 35,000  Level FlightAware ADS-B
Wed 08:33:07 AM 52.3070 14.4520 96° East 511 588 35,000  Level FlightAware ADS-B
Wed 08:33:52 AM 52.2950 14.6280 96° East 513 590 35,000  Level FlightAware ADS-B
Wed 08:34:32 AM 52.2840 14.7840 97° East 515 593 35,000  Level FlightAware ADS-B
Wed 08:35:17 AM 52.2710 14.9610 97° East 512 589 35,000  Level FlightAware ADS-B
Wed 08:35:52 AM 52.2610 15.0910 97° East 508 585 35,000  Level FlightAware ADS-B
Wed 08:36:37 AM 52.2490 15.2580 97° East 506 582 35,000  Level FlightAware ADS-B
Wed 08:37:22 AM 52.2360 15.4280 97° East 507 583 35,000  Level FlightAware ADS-B
Wed 08:38:02 AM 52.2240 15.5830 97° East 507 583 35,000  Level FlightAware ADS-B
Wed 08:38:47 AM 52.2100 15.7600 97° East 509 586 35,000  Level FlightAware ADS-B
Wed 08:39:27 AM 52.1980 15.9130 97° East 510 587 35,000  Level FlightAware ADS-B
Wed 08:40:07 AM 52.1850 16.0650 98° East 510 587 35,000  Level FlightAware ADS-B
Wed 08:40:52 AM 52.1720 16.2290 97° East 509 586 35,000  Level FlightAware ADS-B
Wed 08:41:32 AM 52.1590 16.3810 98° East 505 581 35,000  Level FlightAware ADS-B
Wed 08:42:12 AM 52.1460 16.5310 98° East 505 581 35,000  Level FlightAware ADS-B
Wed 08:42:52 AM 52.1340 16.6720 98° East 506 582 35,000  Level FlightAware ADS-B
Wed 08:43:37 AM 52.1180 16.8530 98° East 510 587 35,000  Level FlightAware ADS-B
Wed 08:44:22 AM 52.1030 17.0210 98° East 511 588 35,000  Level FlightAware ADS-B
Wed 08:45:02 AM 52.0890 17.1720 99° East 510 587 35,000  Level FlightAware ADS-B
Wed 08:45:47 AM 52.0720 17.3480 99° East 511 588 35,000  Level FlightAware ADS-B
Wed 08:46:27 AM 52.0580 17.4980 99° East 514 592 35,000  Level FlightAware ADS-B
Wed 08:47:07 AM 52.0430 17.6540 99° East 517 595 35,000  Level FlightAware ADS-B
Wed 08:47:52 AM 52.0270 17.8200 99° East 517 595 35,000  Level FlightAware ADS-B
Wed 08:48:32 AM 52.0120 17.9750 99° East 515 593 35,000  Level FlightAware ADS-B
Wed 08:49:12 AM 51.9970 18.1210 99° East 513 590 35,000  Level FlightAware ADS-B
Wed 08:49:57 AM 51.9790 18.2980 99° East 516 594 35,000  Level FlightAware ADS-B
Wed 08:50:37 AM 51.9640 18.4510 99° East 519 597 35,000  Level FlightAware ADS-B
Wed 08:51:17 AM 51.9480 18.6060 99° East 517 595 35,000  Level FlightAware ADS-B
Wed 08:52:02 AM 51.9300 18.7720 100° East 516 594 35,000  Level FlightAware ADS-B
Wed 08:52:42 AM 51.9140 18.9240 100° East 515 593 35,000  Level FlightAware ADS-B
Wed 08:53:22 AM 51.8970 19.0760 100° East 513 590 35,000  Level FlightAware ADS-B
Wed 08:54:07 AM 51.8780 19.2500 100° East 513 590 35,000  Level FlightAware ADS-B
Wed 08:54:47 AM 51.8610 19.4000 100° East 515 593 35,000  Level FlightAware ADS-B
Wed 08:55:37 AM 51.8400 19.5870 100° East 512 589 35,000  Level FlightAware ADS-B
Wed 08:56:17 AM 51.8230 19.7390 100° East 510 587 35,000 353 Level FlightAware ADS-B
Wed 08:57:02 AM 51.8040 19.9020 101° East 510 587 35,500 565 Climbing FlightAware ADS-B
Wed 08:57:42 AM 51.7870 20.0500 100° East 517 595 35,800 847 Climbing FlightAware ADS-B
Wed 08:58:27 AM 51.7660 20.2240 101° East 507 583 36,700 847 Climbing FlightAware ADS-B
Wed 08:59:07 AM 51.7480 20.3730 101° East 506 582 37,000 225 Climbing FlightAware ADS-B
Wed 08:59:47 AM 51.7300 20.5210 101° East 508 585 37,000  Level FlightAware ADS-B
Wed 09:00:32 AM 51.7100 20.6850 101° East 511 588 37,000  Level FlightAware ADS-B
Wed 09:01:12 AM 51.6920 20.8310 101° East 514 592 37,000  Level FlightAware ADS-B
Wed 09:01:57 AM 51.6700 21.0040 102° East 512 589 37,000  Level FlightAware ADS-B
Wed 09:02:42 AM 51.6490 21.1710 101° East 512 589 37,000  Level FlightAware ADS-B
Wed 09:03:22 AM 51.6300 21.3160 102° East 512 589 37,000  Level FlightAware ADS-B
Wed 09:03:57 AM 51.6130 21.4450 102° East 513 590 37,000  Level FlightAware ADS-B
Wed 09:04:47 AM 51.5880 21.6380 102° East 512 589 37,000  Level FlightAware ADS-B
Wed 09:05:27 AM 51.5680 21.7860 102° East 512 589 37,000  Level FlightAware ADS-B
Wed 09:06:07 AM 51.5480 21.9370 102° East 511 588 37,000  Level FlightAware ADS-B
Wed 09:06:52 AM 51.5260 22.0970 102° East 512 589 37,000  Level FlightAware ADS-B
Wed 09:07:32 AM 51.5060 22.2420 102° East 515 593 37,000  Level FlightAware ADS-B
Wed 09:08:17 AM 51.4810 22.4200 103° East 516 594 37,000  Level FlightAware ADS-B
Wed 09:08:57 AM 51.4600 22.5710 103° East 515 593 37,000  Level FlightAware ADS-B
Wed 09:09:32 AM 51.4430 22.6940 102° East 515 593 37,000  Level FlightAware ADS-B
Wed 09:10:22 AM 51.4160 22.8810 103° East 513 590 37,000  Level FlightAware ADS-B
Wed 09:11:07 AM 51.3910 23.0500 103° East 514 592 37,000  Level FlightAware ADS-B
Wed 09:13:00 AM 51.3601 23.4341 97° East  Level Estimated
Wed 09:13:37 AM 51.3100 23.5950 97° East 515 593 37,000  Level FlightAware ADS-B
Wed 09:14:22 AM 51.2860 23.7620 103° East 514 592 37,000  Level FlightAware ADS-B
Wed 09:15:02 AM 51.2640 23.9130 103° East 512 589 37,000  Level FlightAware ADS-B
Wed 09:15:42 AM 51.2430 24.0580 103° East 512 589 37,000  Level FlightAware ADS-B
Wed 09:16:27 AM 51.2200 24.2160 103° East 512 589 37,000  Level FlightAware ADS-B
Wed 09:17:07 AM 51.1960 24.3740 104° East 509 586 37,000  Level FlightAware ADS-B
Wed 09:17:42 AM 51.1820 24.4660 104° East 507 583 37,000  Level FlightAware ADS-B
Wed 09:18:22 AM 51.1560 24.6380 103° East 506 582 37,000  Level FlightAware ADS-B
Wed 09:19:07 AM 51.1350 24.7840 103° East 506 582 37,000  Level FlightAware ADS-B
Wed 09:19:52 AM 51.1120 24.9320 104° East 506 582 37,000  Level FlightAware ADS-B
Wed 09:20:32 AM 51.0940 25.0560 103° East 506 582 37,000  Level FlightAware ADS-B
Wed 09:21:12 AM 51.0760 25.1790 103° East 506 582 37,000  Level FlightAware ADS-B
Wed 09:22:02 AM 51.0300 25.4420 105° East 509 586 37,000  Level FlightAware ADS-B
Wed 09:22:42 AM 51.0080 25.5780 104° East 507 583 37,000  Level FlightAware ADS-B
Wed 09:23:37 AM 50.9780 25.7700 104° East 506 582 37,000  Level FlightAware ADS-B
Wed 09:24:37 AM 50.9490 25.9470 105° East 505 581 37,000  Level FlightAware ADS-B
Wed 09:25:17 AM 50.9300 26.0690 104° East 505 581 37,000  Level FlightAware ADS-B
Wed 09:25:57 AM 50.9100 26.1920 104° East 505 581 37,000  Level FlightAware ADS-B
Wed 09:26:37 AM 50.8910 26.3140 104° East 505 581 37,000  Level FlightAware ADS-B
Wed 09:27:17 AM 50.8720 26.4360 104° East 505 581 37,000  Level FlightAware ADS-B
Wed 09:27:57 AM 50.8530 26.5580 104° East 505 581 37,000  Level FlightAware ADS-B
Wed 09:28:47 AM 50.8290 26.7110 104° East 505 581 37,000  Level FlightAware ADS-B
Wed 09:29:27 AM 50.8090 26.8330 104° East 505 581 37,000  Level FlightAware ADS-B
Wed 09:30:07 AM 50.7900 26.9540 104° East 505 581 37,000  Level FlightAware ADS-B
Wed 09:30:47 AM 50.7710 27.0760 104° East 505 581 37,000  Level FlightAware ADS-B
Wed 09:31:37 AM 50.6850 27.4720 109° East 500 575 37,000  Level FlightAware ADS-B
Wed 09:32:17 AM 50.6590 27.6110 106° East 499 574 37,000  Level FlightAware ADS-B
Wed 09:32:52 AM 50.6390 27.7210 106° East 501 577 37,000  Level FlightAware ADS-B
Wed 09:33:52 AM 50.6030 27.9210 106° East 501 577 37,000  Level FlightAware ADS-B
Wed 09:34:37 AM 50.5700 28.0960 106° East 497 572 37,000  Level FlightAware ADS-B
Wed 09:35:12 AM 50.5480 28.2130 106° East 496 571 37,000  Level FlightAware ADS-B
Wed 09:35:52 AM 50.5270 28.3310 106° East 496 571 37,000  Level FlightAware ADS-B
Wed 09:36:42 AM 50.4920 28.5090 107° East 496 571 37,000  Level FlightAware ADS-B
Wed 09:37:22 AM 50.4610 28.6630 107° East 494 568 37,000  Level FlightAware ADS-B
Wed 09:38:07 AM 50.4210 28.8080 113° Southeast 492 566 37,000  Level FlightAware ADS-B
Wed 09:38:47 AM 50.3810 28.9360 116° Southeast 490 564 37,000  Level FlightAware ADS-B
Wed 09:39:32 AM 50.3350 29.0870 115° Southeast 491 565 37,000  Level FlightAware ADS-B
Wed 09:40:12 AM 50.2940 29.2170 116° Southeast 492 566 37,000  Level FlightAware ADS-B
Wed 09:40:57 AM 50.2520 29.3550 115° Southeast 493 567 37,000  Level FlightAware ADS-B
Wed 09:41:32 AM 50.2150 29.4720 116° Southeast 495 570 37,000  Level FlightAware ADS-B
Wed 09:42:12 AM 50.1760 29.5950 116° Southeast 495 570 37,000  Level FlightAware ADS-B
Wed 09:43:02 AM 50.1300 29.7500 115° Southeast 495 570 37,000  Level FlightAware ADS-B
Wed 09:43:42 AM 50.0990 29.8960 108° East 498 573 37,000  Level FlightAware ADS-B
Wed 09:44:22 AM 50.0740 30.0310 106° East 497 572 37,000  Level FlightAware ADS-B
Wed 09:45:07 AM 50.0460 30.1720 107° East 498 573 37,000  Level FlightAware ADS-B
Wed 09:45:42 AM 50.0250 30.2830 106° East 500 575 37,000  Level FlightAware ADS-B
Wed 09:46:22 AM 49.9930 30.4440 107° East 500 575 37,000  Level FlightAware ADS-B
Wed 09:47:07 AM 49.9660 30.5800 107° East 499 574 37,000  Level FlightAware ADS-B
Wed 09:47:52 AM 49.9320 30.7510 107° East 498 573 37,000  Level FlightAware ADS-B
Wed 09:48:37 AM 49.9030 30.8970 107° East 498 573 37,000  Level FlightAware ADS-B
Wed 09:49:17 AM 49.8740 31.0400 107° East 497 572 37,000  Level FlightAware ADS-B
Wed 09:49:52 AM 49.8500 31.1590 107° East 495 570 37,000  Level FlightAware ADS-B
Wed 09:50:42 AM 49.8170 31.3200 108° East 492 566 37,000  Level FlightAware ADS-B
Wed 09:51:22 AM 49.7890 31.4590 107° East 492 566 37,000  Level FlightAware ADS-B
Wed 09:52:07 AM 49.7600 31.6000 108° East 492 566 37,000  Level FlightAware ADS-B
Wed 09:52:47 AM 49.7380 31.7150 106° East 492 566 37,000  Level FlightAware ADS-B
Wed 09:53:32 AM 49.6990 31.8890 109° East 490 564 37,000  Level FlightAware ADS-B
Wed 09:54:12 AM 49.6700 32.0260 108° East 489 563 37,000  Level FlightAware ADS-B
Wed 09:54:57 AM 49.6390 32.1700 108° East 489 563 37,000  Level FlightAware ADS-B
Wed 09:55:37 AM 49.6130 32.2900 108° East 492 566 37,000  Level FlightAware ADS-B
Wed 09:56:22 AM 49.5770 32.4580 108° East 493 567 37,000  Level FlightAware ADS-B
Wed 09:56:57 AM 49.5520 32.5740 108° East 491 565 37,000  Level FlightAware ADS-B
Wed 09:57:37 AM 49.5240 32.7010 109° East 489 563 37,000  Level FlightAware ADS-B
Wed 09:58:27 AM 49.4890 32.8580 109° East 488 562 37,000  Level FlightAware ADS-B
Wed 09:59:07 AM 49.4580 32.9980 109° East 489 563 37,000  Level FlightAware ADS-B
Wed 09:59:47 AM 49.4300 33.1230 109° East 490 564 37,000  Level FlightAware ADS-B
Wed 10:00:32 AM 49.3960 33.2770 109° East 491 565 37,000  Level FlightAware ADS-B
Wed 10:01:07 AM 49.3690 33.3950 109° East 489 563 37,000  Level FlightAware ADS-B
Wed 10:01:57 AM 49.3300 33.5660 109° East 490 564 37,000  Level FlightAware ADS-B
Wed 10:02:37 AM 49.3020 33.6880 109° East 490 564 37,000  Level FlightAware ADS-B
Wed 10:03:22 AM 49.2680 33.8320 110° East 490 564 37,000  Level FlightAware ADS-B
Wed 10:04:02 AM 49.2390 33.9600 109° East 489 563 37,000  Level FlightAware ADS-B
Wed 10:04:42 AM 49.2080 34.0910 110° East 489 563 37,000  Level FlightAware ADS-B
Wed 10:05:27 AM 49.1740 34.2330 110° East 490 564 37,000  Level FlightAware ADS-B
Wed 10:06:07 AM 49.1450 34.3570 110° East 489 563 37,000  Level FlightAware ADS-B
Wed 10:06:52 AM 49.1080 34.5140 110° East 487 560 37,000  Level FlightAware ADS-B
Wed 10:07:32 AM 49.0780 34.6390 110° East 486 559 37,000  Level FlightAware ADS-B
Wed 10:08:07 AM 49.0520 34.7460 110° East 487 560 37,000  Level FlightAware ADS-B
Wed 10:08:57 AM 49.0140 34.9040 110° East 484 557 37,000  Level FlightAware ADS-B
Wed 10:09:37 AM 48.9830 35.0310 110° East 481 554 37,000  Level FlightAware ADS-B
Wed 10:10:17 AM 48.9530 35.1530 110° East 480 552 37,000  Level FlightAware ADS-B
Wed 10:11:02 AM 48.9160 35.3000 111° Southeast 482 555 37,000  Level FlightAware ADS-B
Wed 10:13:00 AM 48.8440 35.6680 106° East  Level Estimated
Wed 10:14:00 AM 48.8070 35.8546 107° East  Level Estimated
Wed 10:14:02 AM 48.7710 35.8800 107° East 487 560 37,000  Level FlightAware ADS-B
Wed 10:14:37 AM 48.7420 35.9930 111° Southeast 487 560 37,000  Level FlightAware ADS-B
Wed 10:15:27 AM 48.7000 36.1550 111° Southeast 487 560 37,000  Level FlightAware ADS-B
Wed 10:16:22 AM 48.6530 36.3370 111° Southeast 487 560 37,000  Level FlightAware ADS-B
Wed 10:17:02 AM 48.6240 36.4500 111° Southeast 484 557 37,000  Level FlightAware ADS-B
Wed 10:17:47 AM 48.5850 36.5990 112° Southeast 484 557 37,000  Level FlightAware ADS-B
Wed 10:18:22 AM 48.5560 36.7100 112° Southeast 484 557 37,000  Level FlightAware ADS-B
Wed 10:19:07 AM 48.5270 36.8170 112° Southeast 481 554 37,000  Level FlightAware ADS-B
Wed 10:19:47 AM 48.4890 36.9580 112° Southeast 480 552 37,000  Level FlightAware ADS-B
Wed 10:20:32 AM 48.4520 37.0970 112° Southeast 481 554 37,000  Level FlightAware ADS-B
Wed 10:21:32 AM 48.4040 37.2760 112° Southeast 482 555 37,000  Level FlightAware ADS-B
Wed 10:22:07 AM 48.3750 37.3820 112° Southeast 481 554 37,000  Level FlightAware ADS-B
Wed 10:22:52 AM 48.3320 37.5410 112° Southeast 483 556 37,000  Level FlightAware ADS-B
Wed 10:23:37 AM 48.2920 37.6880 112° Southeast 483 556 37,000  Level FlightAware ADS-B
Wed 10:24:12 AM 48.2620 37.7980 112° Southeast 483 556 37,000  Level FlightAware ADS-B
Wed 10:25:02 AM 48.2220 37.9440 112° Southeast 483 556 37,000  Level FlightAware ADS-B
Wed 10:25:37 AM 48.1920 38.0540 112° Southeast 483 556 37,000  Level FlightAware ADS-B
Wed 10:26:22 AM 48.1520 38.2010 112° Southeast 483 556 37,000  Level FlightAware ADS-B
Wed 10:27:22 AM 48.1020 38.3840 112° Southeast 483 556 37,000  Level FlightAware ADS-B
Wed 10:28:02 AM 48.0690 38.4810 117° Southeast 486 559 37,000  Level FlightAware ADS-B
Wed 10:28:42 AM 48.0310 38.6160 113° Southeast 486 559 37,000  Level FlightAware ADS-B
Wed 10:29:27 AM 47.9920 38.7510 113° Southeast 485 558 37,000  Level FlightAware ADS-B
Wed 10:30:02 AM 47.9640 38.8490 113° Southeast 486 559 37,000  Level FlightAware ADS-B
Wed 10:30:42 AM 47.9440 38.9180 113° Southeast 486 559 37,000  Level FlightAware ADS-B
Wed 10:31:32 AM 47.8950 39.0870 113° Southeast 487 560 37,000  Level FlightAware ADS-B
Wed 10:32:12 AM 47.8550 39.2240 113° Southeast 486 559 37,000  Level FlightAware ADS-B
Wed 10:32:57 AM 47.8210 39.3330 115° Southeast 485 558 37,000  Level FlightAware ADS-B
Wed 10:33:47 AM 47.7500 39.5540 115° Southeast 487 560 37,000  Level FlightAware ADS-B
Wed 10:34:27 AM 47.7120 39.6720 116° Southeast 487 560 37,000  Level FlightAware ADS-B
Wed 10:35:27 AM 47.6530 39.8570 115° Southeast 488 562 37,000  Level FlightAware ADS-B
Wed 10:36:07 AM 47.6140 39.9760 116° Southeast 487 560 37,000  Level FlightAware ADS-B
Wed 10:36:47 AM 47.5780 40.0880 115° Southeast 485 558 37,000  Level FlightAware ADS-B
Wed 10:37:27 AM 47.5360 40.2150 116° Southeast 485 558 37,000  Level FlightAware ADS-B
Wed 10:38:17 AM 47.4900 40.3550 116° Southeast 487 560 37,000  Level FlightAware ADS-B
Wed 10:38:57 AM 47.4480 40.4840 116° Southeast 487 560 37,000  Level FlightAware ADS-B
Wed 10:39:37 AM 47.4090 40.6000 116° Southeast 489 563 37,000  Level FlightAware ADS-B
Wed 10:40:22 AM 47.3630 40.7380 116° Southeast 488 562 37,000  Level FlightAware ADS-B
Wed 10:41:02 AM 47.3250 40.8550 116° Southeast 488 562 37,000  Level FlightAware ADS-B
Wed 10:41:47 AM 47.2830 40.9790 116° Southeast 490 564 37,000  Level FlightAware ADS-B
Wed 10:42:27 AM 47.2420 41.1040 116° Southeast 491 565 37,000  Level FlightAware ADS-B
Wed 10:43:02 AM 47.2100 41.2010 116° Southeast 491 565 37,000  Level FlightAware ADS-B
Wed 10:43:52 AM 47.1560 41.3560 117° Southeast 494 568 37,000  Level FlightAware ADS-B
Wed 10:44:27 AM 47.1210 41.4590 117° Southeast 495 570 37,000  Level FlightAware ADS-B
Wed 10:45:17 AM 47.0750 41.5920 117° Southeast 496 571 37,000  Level FlightAware ADS-B
Wed 10:45:52 AM 47.0580 41.6400 117° Southeast 497 572 37,000  Level FlightAware ADS-B
Wed 10:46:42 AM 46.9800 41.8660 117° Southeast 496 571 37,000  Level FlightAware ADS-B
Wed 10:47:17 AM 46.9410 41.9770 117° Southeast 494 568 37,000  Level FlightAware ADS-B
Wed 10:47:57 AM 46.8990 42.0960 117° Southeast 493 567 37,000  Level FlightAware ADS-B
Wed 10:48:37 AM 46.8580 42.2130 117° Southeast 494 568 37,000  Level FlightAware ADS-B
Wed 10:49:22 AM 46.8100 42.3480 117° Southeast 494 568 37,000  Level FlightAware ADS-B
Wed 10:50:02 AM 46.7690 42.4650 117° Southeast 495 570 37,000  Level FlightAware ADS-B
Wed 10:50:47 AM 46.7210 42.5980 118° Southeast 495 570 37,000  Level FlightAware ADS-B
Wed 10:51:27 AM 46.6820 42.7070 118° Southeast 496 571 37,000  Level FlightAware ADS-B
Wed 10:52:02 AM 46.6430 42.8160 117° Southeast 496 571 37,000  Level FlightAware ADS-B
Wed 10:52:52 AM 46.5880 42.9670 118° Southeast 495 570 37,000  Level FlightAware ADS-B
Wed 10:53:32 AM 46.5440 43.0860 118° Southeast 496 571 37,000  Level FlightAware ADS-B
Wed 10:54:17 AM 46.4990 43.2100 118° Southeast 497 572 37,000  Level FlightAware ADS-B
Wed 10:54:52 AM 46.4680 43.3110 114° Southeast 501 577 37,000  Level FlightAware ADS-B
Wed 10:55:37 AM 46.4350 43.4460 109° East 499 574 37,000  Level FlightAware ADS-B
Wed 10:56:17 AM 46.4050 43.5690 109° East 498 573 37,000  Level FlightAware ADS-B
Wed 10:57:02 AM 46.3630 43.7350 110° East 502 578 37,000  Level FlightAware ADS-B
Wed 10:57:47 AM 46.3280 43.8770 110° East 503 579 37,000  Level FlightAware ADS-B
Wed 10:58:22 AM 46.3030 43.9740 110° East 503 579 37,000  Level FlightAware ADS-B
Wed 10:59:12 AM 46.2620 44.1370 110° East 501 577 37,000  Level FlightAware ADS-B
Wed 10:59:52 AM 46.2280 44.2710 110° East 502 578 37,000  Level FlightAware ADS-B
Wed 11:00:32 AM 46.1950 44.3980 111° Southeast 501 577 37,000  Level FlightAware ADS-B
Wed 11:01:17 AM 46.1600 44.5380 110° East 501 577 37,000  Level FlightAware ADS-B
Wed 11:01:57 AM 46.1270 44.6630 111° Southeast 501 577 37,000  Level FlightAware ADS-B
Wed 11:02:42 AM 46.0910 44.8030 110° East 502 578 37,000  Level FlightAware ADS-B
Wed 11:03:22 AM 46.0580 44.9260 111° Southeast 504 580 37,000  Level FlightAware ADS-B
Wed 11:03:57 AM 46.0300 45.0330 111° Southeast 504 580 37,000  Level FlightAware ADS-B
Wed 11:05:27 AM 45.9570 45.3100 111° Southeast 502 578 37,000  Level FlightAware ADS-B
Wed 11:06:02 AM 45.9320 45.4060 110° East 502 578 37,000  Level FlightAware ADS-B
Wed 11:06:57 AM 45.8810 45.5930 111° Southeast 498 573 37,000  Level FlightAware ADS-B
Wed 11:07:47 AM 45.8390 45.7480 111° Southeast 498 573 37,000  Level FlightAware ADS-B
Wed 11:08:42 AM 45.7980 45.8980 111° Southeast 499 574 37,000  Level FlightAware ADS-B
Wed 11:09:22 AM 45.7630 46.0270 111° Southeast 497 572 37,000  Level FlightAware ADS-B
Wed 11:10:07 AM 45.7300 46.1490 111° Southeast 497 572 37,000  Level FlightAware ADS-B
Wed 11:10:52 AM 45.6860 46.3060 112° Southeast 496 571 37,000  Level FlightAware ADS-B
Wed 11:12:02 AM 45.6250 46.5250 112° Southeast 496 571 37,000  Level FlightAware ADS-B
Wed 11:12:42 AM 45.5900 46.6470 112° Southeast 496 571 37,000  Level FlightAware ADS-B
Wed 11:13:27 AM 45.5530 46.7800 112° Southeast 497 572 37,000  Level FlightAware ADS-B
Wed 11:14:07 AM 45.5170 46.9060 112° Southeast 496 571 37,000  Level FlightAware ADS-B
Wed 11:14:47 AM 45.4860 47.0150 112° Southeast 495 570 37,000  Level FlightAware ADS-B
Wed 11:15:42 AM 45.4670 47.0810 112° Southeast 494 568 37,000  Level FlightAware ADS-B
Wed 11:16:57 AM 45.3710 47.4140 112° Southeast 494 568 37,000  Level FlightAware ADS-B
Wed 11:17:32 AM 45.3450 47.5070 112° Southeast 494 568 37,000  Level FlightAware ADS-B
Wed 11:18:17 AM 45.3030 47.6460 113° Southeast 499 574 37,000  Level FlightAware ADS-B
Wed 11:19:02 AM 45.2610 47.7900 112° Southeast 499 574 37,000  Level FlightAware ADS-B
Wed 11:20:02 AM 45.2110 47.9600 113° Southeast 496 571 37,000  Level FlightAware ADS-B
Wed 11:20:57 AM 45.1590 48.1340 113° Southeast 494 568 37,000  Level FlightAware ADS-B
Wed 11:21:37 AM 45.1250 48.2490 113° Southeast 492 566 37,000  Level FlightAware ADS-B
Wed 11:22:17 AM 45.0880 48.3700 113° Southeast 490 564 37,000  Level FlightAware ADS-B
Wed 11:23:12 AM 45.0400 48.5310 113° Southeast 489 563 37,000  Level FlightAware ADS-B
Wed 11:23:57 AM 44.9990 48.6660 113° Southeast 492 566 37,000  Level FlightAware ADS-B
Wed 11:24:37 AM 44.9620 48.7850 114° Southeast 491 565 37,000  Level FlightAware ADS-B
Wed 11:25:22 AM 44.9220 48.9160 113° Southeast 490 564 37,000  Level FlightAware ADS-B
Wed 11:26:02 AM 44.8870 49.0300 113° Southeast 489 563 37,000  Level FlightAware ADS-B
Wed 11:26:42 AM 44.8520 49.1430 114° Southeast 487 560 37,000  Level FlightAware ADS-B
Wed 11:27:27 AM 44.8090 49.2790 114° Southeast 488 562 37,000  Level FlightAware ADS-B
Wed 11:28:07 AM 44.7730 49.3930 114° Southeast 490 564 37,000  Level FlightAware ADS-B
Wed 11:28:52 AM 44.7260 49.5220 117° Southeast 481 554 37,000  Level FlightAware ADS-B
Wed 11:29:32 AM 44.6740 49.6220 126° Southeast 475 547 37,000  Level FlightAware ADS-B
Wed 11:30:17 AM 44.6140 49.7340 127° Southeast 478 550 37,000  Level FlightAware ADS-B
Wed 11:30:57 AM 44.5630 49.8290 127° Southeast 476 548 37,000  Level FlightAware ADS-B
Wed 11:31:37 AM 44.5090 49.9290 127° Southeast 474 545 37,000  Level FlightAware ADS-B
Wed 11:32:22 AM 44.4480 50.0410 127° Southeast 475 547 37,000  Level FlightAware ADS-B
Wed 11:33:02 AM 44.3950 50.1370 128° Southeast 475 547 37,000  Level FlightAware ADS-B
Wed 11:33:42 AM 44.3420 50.2350 127° Southeast 476 548 37,000  Level FlightAware ADS-B
Wed 11:34:27 AM 44.2870 50.3360 127° Southeast 475 547 37,000  Level FlightAware ADS-B
Wed 11:35:07 AM 44.2310 50.4360 128° Southeast 470 541 37,000  Level FlightAware ADS-B
Wed 11:35:47 AM 44.1860 50.5180 127° Southeast 470 541 37,000  Level FlightAware ADS-B
Wed 11:36:27 AM 44.1980 50.4970 309° West 469 540 37,000  Level FlightAware ADS-B
Wed 11:37:17 AM 44.1420 50.6000 127° Southeast 469 540 37,000  Level FlightAware ADS-B
Wed 11:37:57 AM 44.0980 50.6820 127° Southeast 469 540 37,000  Level FlightAware ADS-B
Wed 11:38:37 AM 44.0530 50.7640 127° Southeast 469 540 37,000  Level FlightAware ADS-B
Wed 11:39:17 AM 44.0090 50.8460 127° Southeast 469 540 37,000  Level FlightAware ADS-B
Wed 11:39:57 AM 43.9650 50.9280 127° Southeast 469 540 37,000  Level FlightAware ADS-B
Wed 11:40:37 AM 43.9200 51.0100 127° Southeast 469 540 37,000  Level FlightAware ADS-B
Wed 11:41:27 AM 43.8650 51.1120 127° Southeast 469 540 37,000  Level FlightAware ADS-B
Wed 11:42:07 AM 43.8200 51.1940 127° Southeast 469 540 37,000  Level FlightAware ADS-B
Wed 11:42:47 AM 43.7760 51.2750 127° Southeast 469 540 37,000  Level FlightAware ADS-B
Wed 11:43:27 AM 43.7310 51.3570 127° Southeast 469 540 37,000  Level FlightAware ADS-B
Wed 11:44:07 AM 43.6870 51.4380 127° Southeast 469 540 37,000  Level FlightAware ADS-B
Wed 11:44:47 AM 43.6430 51.5200 127° Southeast 469 540 37,000  Level FlightAware ADS-B
Wed 11:45:37 AM 43.5870 51.6210 127° Southeast 469 540 37,000 -58 Level FlightAware ADS-B
Wed 11:48:00 AM 43.4428 51.9931 118° Southeast  Level Estimated
Wed 11:49:00 AM 43.3820 52.1487 118° Southeast  Level Estimated
Wed 11:50:00 AM 43.3209 52.3040 118° Southeast  Level Estimated
Wed 11:51:00 AM 43.2597 52.4590 118° Southeast  Level Estimated
Wed 11:52:00 AM 43.1982 52.6136 119° Southeast  Level Estimated
Wed 11:53:00 AM 43.1365 52.7680 119° Southeast  Level Estimated
Wed 11:54:00 AM 43.0746 52.9220 119° Southeast  Level Estimated
Wed 11:55:00 AM 43.0125 53.0757 119° Southeast  Level Estimated
Wed 11:56:00 AM 42.9502 53.2291 119° Southeast  Level Estimated
Wed 11:57:00 AM 42.8877 53.3822 119° Southeast  Level Estimated
Wed 11:58:00 AM 42.8250 53.5350 119° Southeast  Level Estimated
Wed 11:59:00 AM 42.7620 53.6875 119° Southeast  Level Estimated
Wed 12:00:00 PM 42.6989 53.8397 119° Southeast  Level Estimated
Wed 12:01:00 PM 42.6356 53.9915 120° Southeast  Level Estimated
Wed 12:02:00 PM 42.5721 54.1431 120° Southeast  Level Estimated
Wed 12:03:00 PM 42.5084 54.2943 120° Southeast  Level Estimated
Wed 12:04:00 PM 42.4444 54.4453 120° Southeast  Level Estimated
Wed 12:05:00 PM 42.3803 54.5959 120° Southeast  Level Estimated
Wed 12:06:00 PM 42.3160 54.7462 120° Southeast  Level Estimated
Wed 12:07:00 PM 42.2515 54.8962 120° Southeast  Level Estimated
Wed 12:08:00 PM 42.1868 55.0459 120° Southeast  Level Estimated
Wed 12:09:00 PM 42.1219 55.1953 120° Southeast  Level Estimated
Wed 12:10:00 PM 42.0568 55.3444 120° Southeast  Level Estimated
Wed 12:11:00 PM 41.9915 55.4932 121° Southeast  Level Estimated
Wed 12:12:00 PM 41.9260 55.6417 121° Southeast  Level Estimated
Wed 12:13:00 PM 41.8604 55.7899 121° Southeast  Level Estimated
Wed 12:14:00 PM 41.7945 55.9377 121° Southeast  Level Estimated
Wed 12:15:00 PM 41.7285 56.0853 121° Southeast  Level Estimated
Wed 12:16:00 PM 41.6622 56.2326 121° Southeast  Level Estimated
Wed 12:17:00 PM 41.5958 56.3795 121° Southeast  Level Estimated
Wed 12:18:00 PM 41.5292 56.5262 121° Southeast  Level Estimated
Wed 12:19:00 PM 41.4624 56.6725 121° Southeast  Level Estimated
Wed 12:20:00 PM 41.3954 56.8186 121° Southeast  Level Estimated
Wed 12:21:00 PM 41.3283 56.9643 121° Southeast  Level Estimated
Wed 12:22:00 PM 41.2609 57.1098 122° Southeast  Level Estimated
Wed 12:23:00 PM 41.1934 57.2549 122° Southeast  Level Estimated
Wed 12:24:00 PM 41.1257 57.3998 122° Southeast  Level Estimated
Wed 12:25:00 PM 41.0578 57.5443 122° Southeast  Level Estimated
Wed 12:26:00 PM 40.9897 57.6886 122° Southeast  Level Estimated
Wed 12:27:00 PM 40.9215 57.8326 122° Southeast  Level Estimated
Wed 12:28:00 PM 40.8531 57.9762 122° Southeast  Level Estimated
Wed 12:29:00 PM 40.7844 58.1196 122° Southeast  Level Estimated
Wed 12:30:00 PM 40.7156 58.2626 122° Southeast  Level Estimated
Wed 12:31:00 PM 40.6467 58.4054 122° Southeast  Level Estimated
Wed 12:32:00 PM 40.5775 58.5479 123° Southeast  Level Estimated
Wed 12:33:00 PM 40.5082 58.6901 123° Southeast  Level Estimated
Wed 12:34:00 PM 40.4388 58.8320 123° Southeast  Level Estimated
Wed 12:35:00 PM 40.3691 58.9736 123° Southeast  Level Estimated
Wed 12:36:00 PM 40.2993 59.1149 123° Southeast  Level Estimated
Wed 12:37:00 PM 40.2293 59.2559 123° Southeast  Level Estimated
Wed 12:38:00 PM 40.1591 59.3966 123° Southeast  Level Estimated
Wed 12:39:00 PM 40.0887 59.5370 123° Southeast  Level Estimated
Wed 12:40:00 PM 40.0182 59.6772 123° Southeast  Level Estimated
Wed 12:41:00 PM 39.9476 59.8170 123° Southeast  Level Estimated
Wed 12:42:00 PM 39.8767 59.9566 123° Southeast  Level Estimated
Wed 12:43:00 PM 39.8057 60.0958 124° Southeast  Level Estimated
Wed 12:44:00 PM 39.7345 60.2348 124° Southeast  Level Estimated
Wed 12:45:00 PM 39.6632 60.3735 124° Southeast  Level Estimated
Wed 12:46:00 PM 39.5916 60.5119 124° Southeast  Level Estimated
Wed 12:47:00 PM 39.5200 60.6501 124° Southeast  Level Estimated
Wed 12:48:00 PM 39.4481 60.7879 124° Southeast  Level Estimated
Wed 12:49:00 PM 39.3761 60.9254 124° Southeast  Level Estimated
Wed 12:50:00 PM 39.3040 61.0627 124° Southeast  Level Estimated
Wed 12:51:00 PM 39.2317 61.1997 124° Southeast  Level Estimated
Wed 12:52:00 PM 39.1592 61.3364 124° Southeast  Level Estimated
Wed 12:53:00 PM 39.0865 61.4728 124° Southeast  Level Estimated
Wed 12:54:00 PM 39.0137 61.6090 125° Southeast  Level Estimated
Wed 12:55:00 PM 38.9408 61.7448 125° Southeast  Level Estimated
Wed 12:56:00 PM 38.8676 61.8804 125° Southeast  Level Estimated
Wed 12:57:00 PM 38.7944 62.0157 125° Southeast  Level Estimated
Wed 12:58:00 PM 38.7210 62.1507 125° Southeast  Level Estimated
Wed 12:59:00 PM 38.6474 62.2855 125° Southeast  Level Estimated
Wed 01:00:00 PM 38.5736 62.4199 125° Southeast  Level Estimated
Wed 01:01:00 PM 38.4997 62.5541 125° Southeast  Level Estimated
Wed 01:02:00 PM 38.4257 62.6880 125° Southeast  Level Estimated
Wed 01:03:00 PM 38.3515 62.8217 125° Southeast  Level Estimated
Wed 01:04:00 PM 38.2771 62.9551 125° Southeast  Level Estimated
Wed 01:05:00 PM 38.2026 63.0882 125° Southeast  Level Estimated
Wed 01:06:00 PM 38.1280 63.2210 126° Southeast  Level Estimated
Wed 01:07:00 PM 38.0532 63.3535 126° Southeast  Level Estimated
Wed 01:08:00 PM 37.9782 63.4858 126° Southeast  Level Estimated
Wed 01:09:00 PM 37.9032 63.6178 126° Southeast  Level Estimated
Wed 01:10:00 PM 37.8279 63.7496 126° Southeast  Level Estimated
Wed 01:11:00 PM 37.7525 63.8810 126° Southeast  Level Estimated
Wed 01:12:00 PM 37.6770 64.0122 126° Southeast  Level Estimated
Wed 01:13:00 PM 37.6013 64.1432 126° Southeast  Level Estimated
Wed 01:14:00 PM 37.5255 64.2738 126° Southeast  Level Estimated
Wed 01:15:00 PM 37.4495 64.4043 126° Southeast  Level Estimated
Wed 01:16:00 PM 37.3734 64.5344 126° Southeast  Level Estimated
Wed 01:17:00 PM 37.2972 64.6643 126° Southeast  Level Estimated
Wed 01:18:00 PM 37.2208 64.7939 126° Southeast  Level Estimated
Wed 01:19:00 PM 37.1442 64.9232 127° Southeast  Level Estimated
Wed 01:20:00 PM 37.0676 65.0523 127° Southeast  Level Estimated
Wed 01:21:00 PM 36.9908 65.1812 127° Southeast  Level Estimated
Wed 01:22:00 PM 36.9138 65.3097 127° Southeast  Level Estimated
Wed 01:23:00 PM 36.8367 65.4380 127° Southeast  Level Estimated
Wed 01:24:00 PM 36.7595 65.5661 127° Southeast  Level Estimated
Wed 01:25:00 PM 36.6821 65.6939 127° Southeast  Level Estimated
Wed 01:26:00 PM 36.6046 65.8214 127° Southeast  Level Estimated
Wed 01:27:00 PM 36.5270 65.9487 127° Southeast  Level Estimated
Wed 01:28:00 PM 36.4492 66.0757 127° Southeast  Level Estimated
Wed 01:29:00 PM 36.3713 66.2025 127° Southeast  Level Estimated
Wed 01:30:00 PM 36.2933 66.3290 127° Southeast  Level Estimated
Wed 01:31:00 PM 36.2151 66.4553 127° Southeast  Level Estimated
Wed 01:32:00 PM 36.1368 66.5813 128° Southeast  Level Estimated
Wed 01:33:00 PM 36.0583 66.7070 128° Southeast  Level Estimated
Wed 01:34:00 PM 35.9798 66.8326 128° Southeast  Level Estimated
Wed 01:35:00 PM 35.9011 66.9578 128° Southeast  Level Estimated
Wed 01:36:00 PM 35.8222 67.0828 128° Southeast  Level Estimated
Wed 01:37:00 PM 35.7433 67.2076 128° Southeast  Level Estimated
Wed 01:38:00 PM 35.6642 67.3321 128° Southeast  Level Estimated
Wed 01:39:00 PM 35.5850 67.4564 128° Southeast  Level Estimated
Wed 01:40:00 PM 35.5056 67.5804 128° Southeast  Level Estimated
Wed 01:41:00 PM 35.4262 67.7042 128° Southeast  Level Estimated
Wed 01:42:00 PM 35.3466 67.8277 128° Southeast  Level Estimated
Wed 01:43:00 PM 35.2668 67.9510 128° Southeast  Level Estimated
Wed 01:44:00 PM 35.1870 68.0740 128° Southeast  Level Estimated
Wed 01:45:00 PM 35.1070 68.1968 128° Southeast  Level Estimated
Wed 01:46:00 PM 35.0269 68.3194 129° Southeast  Level Estimated
Wed 01:47:00 PM 34.9467 68.4417 129° Southeast  Level Estimated
Wed 01:48:00 PM 34.8664 68.5638 129° Southeast  Level Estimated
Wed 01:49:00 PM 34.7859 68.6856 129° Southeast  Level Estimated
Wed 01:50:00 PM 34.7053 68.8073 129° Southeast  Level Estimated
Wed 01:51:00 PM 34.6246 68.9286 129° Southeast  Level Estimated
Wed 01:52:00 PM 34.5438 69.0498 129° Southeast  Level Estimated
Wed 01:53:00 PM 34.4629 69.1707 129° Southeast  Level Estimated
Wed 01:54:00 PM 34.3818 69.2913 129° Southeast  Level Estimated
Wed 01:55:00 PM 34.3006 69.4118 129° Southeast  Level Estimated
Wed 01:56:00 PM 34.2193 69.5320 129° Southeast  Level Estimated
Wed 01:57:00 PM 34.1379 69.6519 129° Southeast  Level Estimated
Wed 01:58:00 PM 34.0564 69.7717 129° Southeast  Level Estimated
Wed 01:59:00 PM 33.9747 69.8912 129° Southeast  Level Estimated
Wed 02:00:00 PM 33.8930 70.0105 130° Southeast  Level Estimated
Wed 02:01:00 PM 33.8111 70.1295 130° Southeast  Level Estimated
Wed 02:02:00 PM 33.7291 70.2483 130° Southeast  Level Estimated
Wed 02:03:00 PM 33.6470 70.3669 130° Southeast  Level Estimated
Wed 02:04:00 PM 33.5648 70.4853 130° Southeast  Level Estimated
Wed 02:05:00 PM 33.4825 70.6034 130° Southeast  Level Estimated
Wed 02:06:00 PM 33.4000 70.7214 130° Southeast  Level Estimated
Wed 02:07:00 PM 33.3175 70.8390 130° Southeast  Level Estimated
Wed 02:08:00 PM 33.2348 70.9565 130° Southeast  Level Estimated
Wed 02:09:00 PM 33.1520 71.0738 130° Southeast  Level Estimated
Wed 02:10:00 PM 33.0692 71.1908 130° Southeast  Level Estimated
Wed 02:11:00 PM 32.9862 71.3076 130° Southeast  Level Estimated
Wed 02:12:00 PM 32.9031 71.4242 130° Southeast  Level Estimated
Wed 02:13:00 PM 32.8199 71.5406 130° Southeast  Level Estimated
Wed 02:14:00 PM 32.7365 71.6567 130° Southeast  Level Estimated
Wed 02:15:00 PM 32.6531 71.7726 131° Southeast  Level Estimated
Wed 02:15:47 PM 52.3440 3.0900 131° Southeast 557 641 28,200  Level FlightAware ADS-B
Wed 02:16:00 PM 32.5696 71.8884 131° Southeast  Level Estimated
Wed 02:16:37 PM 52.3590 3.2680 82° East 557 641 28,200  Level FlightAware ADS-B
Wed 02:17:17 PM 52.3710 3.4100 82° East 557 641 28,200  Level FlightAware ADS-B
Wed 02:17:57 PM 52.3830 3.5520 82° East 557 641 28,200  Level FlightAware ADS-B
Wed 02:18:37 PM 52.3950 3.6940 82° East 557 641 28,200  Level FlightAware ADS-B
Wed 02:19:17 PM 52.4080 3.8370 81° East 557 641 28,200 1,168 Level FlightAware ADS-B
Wed 02:21:00 PM 52.4378 4.1950 82° East  Level Estimated
Wed 02:22:00 PM 52.4547 4.4038 82° East  Level Estimated
Wed 02:23:00 PM 52.4712 4.6128 83° East  Level Estimated
Wed 02:24:00 PM 52.4873 4.8218 83° East  Level Estimated
Wed 02:25:00 PM 52.5031 5.0311 83° East  Level Estimated
Wed 02:26:00 PM 52.5185 5.2405 83° East  Level Estimated
Wed 02:27:00 PM 52.5335 5.4500 83° East  Level Estimated
Wed 02:27:52 PM 28.4750 72.2660 83° East 531 611 39,000  Level FlightAware ADS-B
Wed 02:28:00 PM 52.5482 5.6597 83° East  Level Estimated
Wed 02:28:32 PM 28.4190 72.3580 125° Southeast 533 613 39,000  Level FlightAware ADS-B
Wed 02:29:12 PM 28.3730 72.4570 118° Southeast 536 617 39,000  Level FlightAware ADS-B
Wed 02:30:07 PM 28.3140 72.5870 117° Southeast 536 617 39,000  Level FlightAware ADS-B
Wed 02:31:02 PM 28.2510 72.7250 117° Southeast 537 618 39,000  Level FlightAware ADS-B
Wed 02:31:57 PM 28.1900 72.8580 117° Southeast 534 615 39,000  Level FlightAware ADS-B
Wed 02:32:37 PM 28.1520 72.9430 117° Southeast 534 615 39,000  Level FlightAware ADS-B
Wed 02:33:27 PM 28.0870 73.0810 118° Southeast 536 617 39,000  Level FlightAware ADS-B
Wed 02:34:07 PM 28.0350 73.1910 118° Southeast 538 619 39,000  Level FlightAware ADS-B
Wed 02:34:52 PM 27.9910 73.2890 117° Southeast 538 619 39,000  Level FlightAware ADS-B
Wed 02:35:32 PM 27.9530 73.3740 117° Southeast 538 619 39,000  Level FlightAware ADS-B
Wed 02:36:12 PM 27.9140 73.4600 117° Southeast 538 619 39,000  Level FlightAware ADS-B
Wed 02:36:52 PM 27.8760 73.5450 117° Southeast 538 619 39,000  Level FlightAware ADS-B
Wed 02:37:32 PM 27.8370 73.6300 117° Southeast 538 619 39,000  Level FlightAware ADS-B
Wed 02:38:22 PM 27.7890 73.7370 117° Southeast 538 619 39,000  Level FlightAware ADS-B
Wed 02:39:02 PM 27.7510 73.8220 117° Southeast 538 619 39,000  Level FlightAware ADS-B
Wed 02:39:42 PM 27.7130 73.9070 117° Southeast 538 619 39,000  Level FlightAware ADS-B
Wed 02:40:22 PM 27.6740 73.9920 117° Southeast 538 619 39,000  Level FlightAware ADS-B
Wed 02:41:12 PM 27.5760 74.1920 119° Southeast 541 623 39,000  Level FlightAware ADS-B
Wed 02:41:52 PM 27.5260 74.3030 117° Southeast 541 623 39,000  Level FlightAware ADS-B
Wed 02:42:47 PM 27.4700 74.4280 117° Southeast 538 619 39,000  Level FlightAware ADS-B
Wed 02:43:32 PM 27.4150 74.5500 117° Southeast 537 618 39,000  Level FlightAware ADS-B
Wed 02:44:22 PM 27.3570 74.6790 117° Southeast 536 617 39,000  Level FlightAware ADS-B
Wed 02:45:07 PM 27.3060 74.7920 117° Southeast 533 613 39,000  Level FlightAware ADS-B
Wed 02:45:47 PM 27.2610 74.8900 117° Southeast 533 613 39,000  Level FlightAware ADS-B
Wed 02:46:37 PM 27.2140 74.9970 116° Southeast 534 615 39,000  Level FlightAware ADS-B
Wed 02:47:27 PM 27.1680 75.1030 116° Southeast 534 615 39,000  Level FlightAware ADS-B
Wed 02:48:02 PM 27.1110 75.2210 118° Southeast 39,000  Level FlightAware ADS-B
Wed 02:48:57 PM 27.0520 75.3490 117° Southeast 533 613 39,000  Level FlightAware ADS-B
Wed 02:49:47 PM 27.0030 75.4560 117° Southeast 533 613 39,000  Level FlightAware ADS-B
Wed 02:50:17 PM 26.9580 75.5520 118° Southeast 534 615 39,000  Level FlightAware ADS-B
Wed 02:51:02 PM 26.9060 75.6660 117° Southeast 533 613 39,000  Level FlightAware ADS-B
Wed 02:51:52 PM 26.8560 75.7730 118° Southeast 533 613 39,000  Level FlightAware ADS-B
Wed 02:52:32 PM 26.8020 75.8890 118° Southeast 534 615 39,000  Level FlightAware ADS-B
Wed 02:53:32 PM 26.7300 76.0280 120° Southeast 530 610 39,000  Level FlightAware ADS-B
Wed 02:54:12 PM 26.6830 76.1180 120° Southeast 529 609 39,000  Level FlightAware ADS-B
Wed 02:55:02 PM 26.6240 76.2360 119° Southeast 528 608 39,000  Level FlightAware ADS-B
Wed 02:55:42 PM 26.5830 76.3180 119° Southeast 528 608 39,000  Level FlightAware ADS-B
Wed 02:56:32 PM 26.5330 76.4190 119° Southeast 528 608 39,000  Level FlightAware ADS-B
Wed 02:57:12 PM 26.4930 76.5000 119° Southeast 528 608 39,000  Level FlightAware ADS-B
Wed 02:57:52 PM 26.4520 76.5810 119° Southeast 528 608 39,000  Level FlightAware ADS-B
Wed 02:58:32 PM 26.4120 76.6630 119° Southeast 528 608 39,000  Level FlightAware ADS-B
Wed 02:59:17 PM 26.3140 76.8590 119° Southeast 530 610 39,000  Level FlightAware ADS-B
Wed 02:59:52 PM 26.2780 76.9330 118° Southeast 528 608 39,000  Level FlightAware ADS-B
Wed 03:00:37 PM 26.2300 77.0330 118° Southeast 528 608 39,000  Level FlightAware ADS-B
Wed 03:01:27 PM 26.1820 77.1350 118° Southeast 528 608 39,000  Level FlightAware ADS-B
Wed 03:02:07 PM 26.1430 77.2170 118° Southeast 528 608 39,000  Level FlightAware ADS-B
Wed 03:02:47 PM 26.1040 77.2990 118° Southeast 528 608 39,000  Level FlightAware ADS-B
Wed 03:03:27 PM 26.0650 77.3800 118° Southeast 528 608 39,000  Level FlightAware ADS-B
Wed 03:04:07 PM 26.0260 77.4620 118° Southeast 528 608 39,000  Level FlightAware ADS-B
Wed 03:04:57 PM 25.9770 77.5640 118° Southeast 528 608 39,000  Level FlightAware ADS-B
Wed 03:05:37 PM 25.9380 77.6450 118° Southeast 528 608 39,000  Level FlightAware ADS-B
Wed 03:06:17 PM 25.8990 77.7270 118° Southeast 528 608 39,000  Level FlightAware ADS-B
Wed 03:06:57 PM 25.8600 77.8080 118° Southeast 528 608 39,000  Level FlightAware ADS-B
Wed 03:07:37 PM 25.8210 77.8900 118° Southeast 528 608 39,000  Level FlightAware ADS-B
Wed 03:08:27 PM 25.7720 77.9920 118° Southeast 528 608 39,000  Level FlightAware ADS-B
Wed 03:09:07 PM 25.7330 78.0730 118° Southeast 528 608 39,000  Level FlightAware ADS-B
Wed 03:09:47 PM 25.6940 78.1550 118° Southeast 528 608 39,000 11 Level FlightAware ADS-B
Wed 03:12:00 PM 25.5051 78.3909 132° Southeast  Level Estimated
Wed 03:13:00 PM 25.4197 78.4971 132° Southeast  Level Estimated
Wed 03:14:00 PM 25.3343 78.6032 132° Southeast  Level Estimated
Wed 03:15:00 PM 25.2488 78.7091 132° Southeast  Level Estimated
Wed 03:16:00 PM 25.1632 78.8148 132° Southeast  Level Estimated
Wed 03:17:00 PM 25.0775 78.9204 132° Southeast  Level Estimated
Wed 03:18:00 PM 24.9918 79.0258 132° Southeast  Level Estimated
Wed 03:19:00 PM 24.9060 79.1311 132° Southeast  Level Estimated
Wed 03:20:00 PM 24.8201 79.2363 132° Southeast  Level Estimated
Wed 03:21:00 PM 24.7341 79.3413 132° Southeast  Level Estimated
Wed 03:22:00 PM 24.6481 79.4462 132° Southeast  Level Estimated
Wed 03:23:00 PM 24.5620 79.5509 132° Southeast  Level Estimated
Wed 03:24:00 PM 24.4758 79.6554 132° Southeast  Level Estimated
Wed 03:25:00 PM 24.3896 79.7599 132° Southeast  Level Estimated
Wed 03:26:00 PM 24.3033 79.8642 132° Southeast  Level Estimated
Wed 03:27:00 PM 24.2169 79.9683 132° Southeast  Level Estimated
Wed 03:28:00 PM 24.1304 80.0723 132° Southeast  Level Estimated
Wed 03:29:00 PM 24.0439 80.1762 132° Southeast  Level Estimated
Wed 03:30:00 PM 23.9573 80.2799 132° Southeast  Level Estimated
Wed 03:31:00 PM 23.8706 80.3835 132° Southeast  Level Estimated
Wed 03:32:00 PM 23.7839 80.4869 132° Southeast  Level Estimated
Wed 03:33:00 PM 23.6971 80.5902 133° Southeast  Level Estimated
Wed 03:34:00 PM 23.6102 80.6934 133° Southeast  Level Estimated
Wed 03:35:00 PM 23.5233 80.7964 133° Southeast  Level Estimated
Wed 03:36:00 PM 23.4362 80.8994 133° Southeast  Level Estimated
Wed 03:37:00 PM 23.3492 81.0021 133° Southeast  Level Estimated
Wed 03:38:00 PM 23.2620 81.1047 133° Southeast  Level Estimated
Wed 03:39:00 PM 23.1748 81.2072 133° Southeast  Level Estimated
Wed 03:40:00 PM 23.0875 81.3096 133° Southeast  Level Estimated
Wed 03:41:00 PM 23.0002 81.4118 133° Southeast  Level Estimated
Wed 03:42:00 PM 22.9128 81.5139 133° Southeast  Level Estimated
Wed 03:43:00 PM 22.8253 81.6159 133° Southeast  Level Estimated
Wed 03:44:00 PM 22.7377 81.7177 133° Southeast  Level Estimated
Wed 03:45:00 PM 22.6502 81.8194 133° Southeast  Level Estimated
Wed 03:46:00 PM 22.5625 81.9210 133° Southeast  Level Estimated
Wed 03:47:00 PM 22.4748 82.0224 133° Southeast  Level Estimated
Wed 03:48:00 PM 22.3869 82.1237 133° Southeast  Level Estimated
Wed 03:49:00 PM 22.2991 82.2249 133° Southeast  Level Estimated
Wed 03:50:00 PM 22.2112 82.3260 133° Southeast  Level Estimated
Wed 03:51:00 PM 22.1232 82.4269 133° Southeast  Level Estimated
Wed 03:52:00 PM 22.0351 82.5277 133° Southeast  Level Estimated
Wed 03:53:00 PM 21.9470 82.6284 133° Southeast  Level Estimated
Wed 03:54:00 PM 21.8589 82.7290 133° Southeast  Level Estimated
Wed 03:55:00 PM 21.7706 82.8294 133° Southeast  Level Estimated
Wed 03:56:00 PM 21.6823 82.9297 133° Southeast  Level Estimated
Wed 03:57:00 PM 21.5940 83.0299 133° Southeast  Level Estimated
Wed 03:58:00 PM 21.5056 83.1300 134° Southeast  Level Estimated
Wed 03:59:00 PM 21.4171 83.2299 134° Southeast  Level Estimated
Wed 04:00:00 PM 21.3286 83.3297 134° Southeast  Level Estimated
Wed 04:01:00 PM 21.2400 83.4294 134° Southeast  Level Estimated
Wed 04:02:00 PM 21.1513 83.5290 134° Southeast  Level Estimated
Wed 04:03:00 PM 21.0626 83.6285 134° Southeast  Level Estimated
Wed 04:04:00 PM 20.9739 83.7278 134° Southeast  Level Estimated
Wed 04:05:00 PM 20.8851 83.8270 134° Southeast  Level Estimated
Wed 04:06:00 PM 20.7962 83.9261 134° Southeast  Level Estimated
Wed 04:07:00 PM 20.7073 84.0251 134° Southeast  Level Estimated
Wed 04:08:00 PM 20.6183 84.1240 134° Southeast  Level Estimated
Wed 04:09:00 PM 20.5292 84.2228 134° Southeast  Level Estimated
Wed 04:10:00 PM 20.4401 84.3214 134° Southeast  Level Estimated
Wed 04:11:00 PM 20.3510 84.4200 134° Southeast  Level Estimated
Wed 04:12:00 PM 20.2617 84.5184 134° Southeast  Level Estimated
Wed 04:13:00 PM 20.1725 84.6167 134° Southeast  Level Estimated
Wed 04:14:00 PM 20.0832 84.7149 134° Southeast  Level Estimated
Wed 04:15:00 PM 19.9938 84.8129 134° Southeast  Level Estimated
Wed 04:16:00 PM 19.9043 84.9109 134° Southeast  Level Estimated
Wed 04:17:00 PM 19.8149 85.0088 134° Southeast  Level Estimated
Wed 04:18:00 PM 19.7253 85.1065 134° Southeast  Level Estimated
Wed 04:19:00 PM 19.6357 85.2042 134° Southeast  Level Estimated
Wed 04:20:00 PM 19.5461 85.3017 134° Southeast  Level Estimated
Wed 04:21:00 PM 19.4564 85.3991 134° Southeast  Level Estimated
Wed 04:22:00 PM 19.3666 85.4964 134° Southeast  Level Estimated
Wed 04:23:00 PM 19.2768 85.5936 134° Southeast  Level Estimated
Wed 04:24:00 PM 19.1870 85.6907 134° Southeast  Level Estimated
Wed 04:25:00 PM 19.0971 85.7877 134° Southeast  Level Estimated
Wed 04:26:00 PM 19.0072 85.8846 134° Southeast  Level Estimated
Wed 04:27:00 PM 18.9172 85.9814 135° Southeast  Level Estimated
Wed 04:28:00 PM 18.8271 86.0781 135° Southeast  Level Estimated
Wed 04:29:00 PM 18.7370 86.1747 135° Southeast  Level Estimated
Wed 04:30:00 PM 18.6469 86.2711 135° Southeast  Level Estimated
Wed 04:31:00 PM 18.5567 86.3675 135° Southeast  Level Estimated
Wed 04:32:00 PM 18.4664 86.4638 135° Southeast  Level Estimated
Wed 04:33:00 PM 18.3761 86.5599 135° Southeast  Level Estimated
Wed 04:34:00 PM 18.2857 86.6560 135° Southeast  Level Estimated
Wed 04:35:00 PM 18.1954 86.7520 135° Southeast  Level Estimated
Wed 04:36:00 PM 18.1049 86.8478 135° Southeast  Level Estimated
Wed 04:37:00 PM 18.0144 86.9436 135° Southeast  Level Estimated
Wed 04:38:00 PM 17.9239 87.0393 135° Southeast  Level Estimated
Wed 04:39:00 PM 17.8333 87.1348 135° Southeast  Level Estimated
Wed 04:40:00 PM 17.7427 87.2303 135° Southeast  Level Estimated
Wed 04:41:00 PM 17.6520 87.3257 135° Southeast  Level Estimated
Wed 04:42:00 PM 17.5613 87.4210 135° Southeast  Level Estimated
Wed 04:43:00 PM 17.4705 87.5162 135° Southeast  Level Estimated
Wed 04:44:00 PM 17.3797 87.6113 135° Southeast  Level Estimated
Wed 04:45:00 PM 17.2888 87.7063 135° Southeast  Level Estimated
Wed 04:46:00 PM 17.1979 87.8012 135° Southeast  Level Estimated
Wed 04:47:00 PM 17.1070 87.8960 135° Southeast  Level Estimated
Wed 04:48:00 PM 17.0160 87.9907 135° Southeast  Level Estimated
Wed 04:49:00 PM 16.9250 88.0853 135° Southeast  Level Estimated
Wed 04:50:00 PM 16.8339 88.1798 135° Southeast  Level Estimated
Wed 04:51:00 PM 16.7428 88.2743 135° Southeast  Level Estimated
Wed 04:52:00 PM 16.6516 88.3686 135° Southeast  Level Estimated
Wed 04:53:00 PM 16.5604 88.4629 135° Southeast  Level Estimated
Wed 04:54:00 PM 16.4692 88.5571 135° Southeast  Level Estimated
Wed 04:55:00 PM 16.3779 88.6512 135° Southeast  Level Estimated
Wed 04:56:00 PM 16.2865 88.7452 135° Southeast  Level Estimated
Wed 04:57:00 PM 16.1952 88.8391 135° Southeast  Level Estimated
Wed 04:58:00 PM 16.1038 88.9329 135° Southeast  Level Estimated
Wed 04:59:00 PM 16.0123 89.0266 135° Southeast  Level Estimated
Wed 05:00:00 PM 15.9208 89.1203 135° Southeast  Level Estimated
Wed 05:01:00 PM 15.8293 89.2139 135° Southeast  Level Estimated
Wed 05:02:00 PM 15.7377 89.3073 135° Southeast  Level Estimated
Wed 05:03:00 PM 15.6461 89.4007 136° Southeast  Level Estimated
Wed 05:04:00 PM 15.5544 89.4940 136° Southeast  Level Estimated
Wed 05:05:00 PM 15.4627 89.5873 136° Southeast  Level Estimated
Wed 05:06:00 PM 15.3710 89.6804 136° Southeast  Level Estimated
Wed 05:07:00 PM 15.2792 89.7735 136° Southeast  Level Estimated
Wed 05:08:00 PM 15.1874 89.8665 136° Southeast  Level Estimated
Wed 05:09:00 PM 15.0955 89.9594 136° Southeast  Level Estimated
Wed 05:10:00 PM 15.0036 90.0522 136° Southeast  Level Estimated
Wed 05:11:00 PM 14.9117 90.1449 136° Southeast  Level Estimated
Wed 05:12:00 PM 14.8198 90.2376 136° Southeast  Level Estimated
Wed 05:13:00 PM 14.7278 90.3302 136° Southeast  Level Estimated
Wed 05:14:00 PM 14.6357 90.4227 136° Southeast  Level Estimated
Wed 05:15:00 PM 14.5437 90.5151 136° Southeast  Level Estimated
Wed 05:16:00 PM 14.4515 90.6075 136° Southeast  Level Estimated
Wed 05:17:00 PM 14.3594 90.6997 136° Southeast  Level Estimated
Wed 05:18:00 PM 14.2672 90.7919 136° Southeast  Level Estimated
Wed 05:19:00 PM 14.1750 90.8841 136° Southeast  Level Estimated
Wed 05:20:00 PM 14.0828 90.9761 136° Southeast  Level Estimated
Wed 05:21:00 PM 13.9905 91.0681 136° Southeast  Level Estimated
Wed 05:22:00 PM 13.8982 91.1600 136° Southeast  Level Estimated
Wed 05:23:00 PM 13.8058 91.2518 136° Southeast  Level Estimated
Wed 05:24:00 PM 13.7134 91.3436 136° Southeast  Level Estimated
Wed 05:25:00 PM 13.6210 91.4352 136° Southeast  Level Estimated
Wed 05:26:00 PM 13.5285 91.5269 136° Southeast  Level Estimated
Wed 05:27:00 PM 13.4360 91.6184 136° Southeast  Level Estimated
Wed 05:28:00 PM 13.3435 91.7099 136° Southeast  Level Estimated
Wed 05:29:00 PM 13.2510 91.8013 136° Southeast  Level Estimated
Wed 05:30:00 PM 13.1584 91.8926 136° Southeast  Level Estimated
Wed 05:31:00 PM 13.0658 91.9839 136° Southeast  Level Estimated
Wed 05:32:00 PM 12.9731 92.0751 136° Southeast  Level Estimated
Wed 05:33:00 PM 12.8804 92.1662 136° Southeast  Level Estimated
Wed 05:34:00 PM 12.7877 92.2572 136° Southeast  Level Estimated
Wed 05:35:00 PM 12.6950 92.3482 136° Southeast  Level Estimated
Wed 05:36:00 PM 12.6022 92.4391 136° Southeast  Level Estimated
Wed 05:37:00 PM 12.5094 92.5300 136° Southeast  Level Estimated
Wed 05:38:00 PM 12.4165 92.6208 136° Southeast  Level Estimated
Wed 05:39:00 PM 12.3237 92.7115 136° Southeast  Level Estimated
Wed 05:40:00 PM 12.2308 92.8022 136° Southeast  Level Estimated
Wed 05:41:00 PM 12.1378 92.8928 136° Southeast  Level Estimated
Wed 05:42:00 PM 12.0449 92.9833 136° Southeast  Level Estimated
Wed 05:43:00 PM 11.9519 93.0738 136° Southeast  Level Estimated
Wed 05:44:00 PM 11.8589 93.1642 136° Southeast  Level Estimated
Wed 05:45:00 PM 11.7658 93.2545 136° Southeast  Level Estimated
Wed 05:46:00 PM 11.6728 93.3448 136° Southeast  Level Estimated
Wed 05:47:00 PM 11.5797 93.4351 136° Southeast  Level Estimated
Wed 05:48:00 PM 11.4865 93.5252 136° Southeast  Level Estimated
Wed 05:49:00 PM 11.3934 93.6153 137° Southeast  Level Estimated
Wed 05:50:00 PM 11.3002 93.7054 137° Southeast  Level Estimated
Wed 05:51:00 PM 11.2070 93.7954 137° Southeast  Level Estimated
Wed 05:52:00 PM 11.1137 93.8853 137° Southeast  Level Estimated
Wed 05:53:00 PM 11.0205 93.9752 137° Southeast  Level Estimated
Wed 05:54:00 PM 10.9272 94.0650 137° Southeast  Level Estimated
Wed 05:55:00 PM 10.8339 94.1548 137° Southeast  Level Estimated
Wed 05:56:00 PM 10.7405 94.2445 137° Southeast  Level Estimated
Wed 05:57:00 PM 10.6472 94.3341 137° Southeast  Level Estimated
Wed 05:58:00 PM 10.5538 94.4237 137° Southeast  Level Estimated
Wed 05:59:00 PM 10.4604 94.5133 137° Southeast  Level Estimated
Wed 06:00:00 PM 10.3669 94.6028 137° Southeast  Level Estimated
Wed 06:01:00 PM 10.2734 94.6922 137° Southeast  Level Estimated
Wed 06:02:00 PM 10.1799 94.7816 137° Southeast  Level Estimated
Wed 06:03:00 PM 10.0864 94.8709 137° Southeast  Level Estimated
Wed 06:04:00 PM 9.9929 94.9602 137° Southeast  Level Estimated
Wed 06:05:00 PM 9.8993 95.0494 137° Southeast  Level Estimated
Wed 06:06:00 PM 9.8057 95.1386 137° Southeast  Level Estimated
Wed 06:07:00 PM 9.7121 95.2277 137° Southeast  Level Estimated
Wed 06:08:00 PM 9.6185 95.3168 137° Southeast  Level Estimated
Wed 06:09:00 PM 9.5248 95.4058 137° Southeast  Level Estimated
Wed 06:10:00 PM 9.4311 95.4948 137° Southeast  Level Estimated
Wed 06:11:00 PM 9.3374 95.5837 137° Southeast  Level Estimated
Wed 06:11:57 PM 8.9740 97.4570 137° Southeast 458 527 41,000  Level FlightAware ADS-B
Wed 06:12:00 PM 9.2437 95.6726 137° Southeast  Level Estimated
Wed 06:12:32 PM 8.9180 97.5040 140° Southeast 459 528 41,000  Level FlightAware ADS-B
Wed 06:13:22 PM 8.8390 97.5710 140° Southeast 460 529 41,000  Level FlightAware ADS-B
Wed 06:14:07 PM 8.7760 97.6240 140° Southeast 460 529 41,000  Level FlightAware ADS-B
Wed 06:14:42 PM 8.7230 97.6680 141° Southeast 461 531 41,000  Level FlightAware ADS-B
Wed 06:15:27 PM 8.6580 97.7230 140° Southeast 461 531 41,000  Level FlightAware ADS-B
Wed 06:16:07 PM 8.5660 97.7990 141° Southeast 462 532 41,000  Level FlightAware ADS-B
Wed 06:16:52 PM 8.4990 97.8550 140° Southeast 463 533 41,000  Level FlightAware ADS-B
Wed 06:17:37 PM 8.4170 97.9230 141° Southeast 462 532 41,000  Level FlightAware ADS-B
Wed 06:18:32 PM 8.3290 97.9960 141° Southeast 462 532 41,000  Level FlightAware ADS-B
Wed 06:19:12 PM 8.2580 98.0560 140° Southeast 462 532 41,000  Level FlightAware ADS-B
Wed 06:19:52 PM 8.1980 98.1060 140° Southeast 462 532 41,000  Level FlightAware ADS-B
Wed 06:20:37 PM 8.1330 98.1610 140° Southeast 462 532 41,000  Level FlightAware ADS-B
Wed 06:21:27 PM 8.0360 98.2400 141° Southeast 461 531 41,000  Level FlightAware ADS-B
Wed 06:22:12 PM 7.9710 98.2950 140° Southeast 462 532 41,000  Level FlightAware ADS-B
Wed 06:22:47 PM 7.9240 98.3340 141° Southeast 464 534 41,000  Level FlightAware ADS-B
Wed 06:23:32 PM 7.8390 98.4050 140° Southeast 465 535 41,000  Level FlightAware ADS-B
Wed 06:24:17 PM 7.7590 98.4710 141° Southeast 463 533 41,000  Level FlightAware ADS-B
Wed 06:25:07 PM 7.6740 98.5410 141° Southeast 462 532 41,000  Level FlightAware ADS-B
Wed 06:25:42 PM 7.6180 98.5880 140° Southeast 462 532 41,000  Level FlightAware ADS-B
Wed 06:26:22 PM 7.5490 98.6450 141° Southeast 463 533 41,000  Level FlightAware ADS-B
Wed 06:27:07 PM 7.4740 98.7080 140° Southeast 463 533 41,000  Level FlightAware ADS-B
Wed 06:27:47 PM 7.4130 98.7580 141° Southeast 462 532 41,000  Level FlightAware ADS-B
Wed 06:28:32 PM 7.3390 98.8200 140° Southeast 461 531 41,000  Level FlightAware ADS-B
Wed 06:29:27 PM 7.2640 98.9080 131° Southeast 461 531 41,000  Level FlightAware ADS-B
Wed 06:30:02 PM 7.2270 98.9730 120° Southeast 463 533 41,000  Level FlightAware ADS-B
Wed 06:30:47 PM 7.1710 99.0490 127° Southeast 462 532 41,000  Level FlightAware ADS-B
Wed 06:31:32 PM 7.1100 99.1300 127° Southeast 462 532 41,000  Level FlightAware ADS-B
Wed 06:32:12 PM 7.0610 99.1960 127° Southeast 462 532 41,000  Level FlightAware ADS-B
Wed 06:32:57 PM 7.0020 99.2750 127° Southeast 464 534 41,000  Level FlightAware ADS-B
Wed 06:33:42 PM 6.9420 99.3550 127° Southeast 466 536 41,000  Level FlightAware ADS-B
Wed 06:34:32 PM 6.8790 99.4390 127° Southeast 466 536 41,000  Level FlightAware ADS-B
Wed 06:35:17 PM 6.8170 99.5210 127° Southeast 465 535 41,000  Level FlightAware ADS-B
Wed 06:36:02 PM 6.7590 99.5990 127° Southeast 464 534 41,000  Level FlightAware ADS-B
Wed 06:36:42 PM 6.7060 99.6630 130° Southeast 463 533 41,000  Level FlightAware ADS-B
Wed 06:37:27 PM 6.6460 99.7350 130° Southeast 462 532 41,000  Level FlightAware ADS-B
Wed 06:38:07 PM 6.5870 99.8050 130° Southeast 467 537 41,000  Level FlightAware ADS-B
Wed 06:38:47 PM 6.5320 99.8700 130° Southeast 468 539 41,000  Level FlightAware ADS-B
Wed 06:39:32 PM 6.4680 99.9450 131° Southeast 470 541 41,000  Level FlightAware ADS-B
Wed 06:40:12 PM 6.4100 100.0140 130° Southeast 470 541 41,000  Level FlightAware ADS-B
Wed 06:40:52 PM 6.3550 100.0780 131° Southeast 469 540 41,000  Level FlightAware ADS-B
Wed 06:41:27 PM 6.2990 100.1190 144° Southeast 471 542 41,000  Level FlightAware ADS-B
Wed 06:42:17 PM 6.1960 100.1770 151° Southeast 469 540 41,000  Level FlightAware ADS-B
Wed 06:43:02 PM 6.1110 100.2250 151° Southeast 467 537 41,000  Level FlightAware ADS-B
Wed 06:43:42 PM 6.0360 100.2670 151° Southeast 468 539 41,000  Level FlightAware ADS-B
Wed 06:44:27 PM 5.9510 100.3160 150° Southeast 470 541 41,000  Level FlightAware ADS-B
Wed 06:45:07 PM 5.8740 100.3590 151° Southeast 471 542 41,000  Level FlightAware ADS-B
Wed 06:45:47 PM 5.8000 100.4010 151° Southeast 472 543 41,000  Level FlightAware ADS-B
Wed 06:46:32 PM 5.7120 100.4510 151° Southeast 474 545 41,000  Level FlightAware ADS-B
Wed 06:47:12 PM 5.6360 100.4940 151° Southeast 474 545 41,000  Level FlightAware ADS-B
Wed 06:47:57 PM 5.5480 100.5430 151° Southeast 473 544 41,000  Level FlightAware ADS-B
Wed 06:48:37 PM 5.4720 100.5870 150° Southeast 469 540 41,000  Level FlightAware ADS-B
Wed 06:49:17 PM 5.3960 100.6290 151° Southeast 467 537 41,000  Level FlightAware ADS-B
Wed 06:50:02 PM 5.3120 100.6770 150° Southeast 468 539 41,000  Level FlightAware ADS-B
Wed 06:50:42 PM 5.2390 100.7180 151° Southeast 467 537 41,000  Level FlightAware ADS-B
Wed 06:51:22 PM 5.1610 100.7620 151° Southeast 465 535 41,000  Level FlightAware ADS-B
Wed 06:52:07 PM 5.0830 100.8060 151° Southeast 466 536 41,000  Level FlightAware ADS-B
Wed 06:52:47 PM 5.0000 100.8530 151° Southeast 466 536 41,000  Level FlightAware ADS-B
Wed 06:53:32 PM 4.9200 100.8980 151° Southeast 467 537 41,000  Level FlightAware ADS-B
Wed 06:54:07 PM 4.8490 100.9380 151° Southeast 466 536 41,000 -240 Level FlightAware ADS-B
Wed 06:54:47 PM 4.7740 100.9800 151° Southeast 466 536 40,700 -867 Descending FlightAware ADS-B
Wed 06:55:37 PM 4.6820 101.0330 150° Southeast 467 537 39,700 -1,533 Descending FlightAware ADS-B
Wed 06:56:17 PM 4.6070 101.0740 151° Southeast 462 532 38,400 -1,906 Descending FlightAware ADS-B
Wed 06:57:02 PM 4.5140 101.1110 158° South 463 533 37,000 -1,800 Descending FlightAware ADS-B
Wed 06:57:37 PM 4.4450 101.1310 164° South 460 529 36,000 -1,835 Descending FlightAware ADS-B
Wed 06:58:27 PM 4.3400 101.1610 164° South 450 518 34,400 -1,867 Descending FlightAware ADS-B
Wed 06:59:07 PM 4.2600 101.1850 163° South 442 509 33,200 -1,800 Descending FlightAware ADS-B
Wed 06:59:47 PM 4.1830 101.2070 164° South 433 498 32,000 -1,754 Descending FlightAware ADS-B
Wed 07:00:12 PM 4.1340 101.2210 164° South 429 494 31,300 -553 Descending FlightAware ADS-B
Wed 07:01:03 PM 4.0470 101.2480 163° South 429 494 31,300 -2,188 Level FlightAware ADS-B
Wed 07:01:48 PM 3.9630 101.2920 152° Southeast 419 482 27,800 -3,200 Descending FlightAware ADS-B
Wed 07:02:33 PM 3.8860 101.3310 153° Southeast 407 468 26,500 -1,835 Descending FlightAware ADS-B
Wed 07:03:13 PM 3.8180 101.3670 152° Southeast 398 458 25,200 -1,694 Descending FlightAware ADS-B
Wed 07:03:58 PM 3.7520 101.4010 153° Southeast 389 448 24,100 -1,694 Descending FlightAware ADS-B
Wed 07:04:38 PM 3.6810 101.4380 153° Southeast 379 436 22,800 -1,835 Descending FlightAware ADS-B
Wed 07:05:23 PM 3.6110 101.4740 153° Southeast 372 428 21,500 -1,694 Descending FlightAware ADS-B
Wed 07:06:03 PM 3.5510 101.5050 153° Southeast 367 422 20,400 -1,650 Descending FlightAware ADS-B
Wed 07:06:43 PM 3.4910 101.5360 153° Southeast 360 414 19,300 -1,624 Descending FlightAware ADS-B
Wed 07:07:28 PM 3.4250 101.5700 153° Southeast 355 409 18,100 -1,624 Descending FlightAware ADS-B
Wed 07:08:08 PM 3.3660 101.6010 152° Southeast 351 404 17,000 -1,906 Descending FlightAware ADS-B
Wed 07:08:53 PM 3.2990 101.6310 156° South 359 413 15,400 -2,400 Descending FlightAware ADS-B
Wed 07:09:33 PM 3.2350 101.6540 160° South 371 427 13,600 -2,250 Descending FlightAware ADS-B
Wed 07:10:13 PM 3.1710 101.6770 160° South 361 415 12,400 -1,765 Descending FlightAware ADS-B
Wed 07:10:58 PM 3.1010 101.7020 160° South 351 404 11,100 -1,500 Descending FlightAware ADS-B
Wed 07:11:53 PM 3.0300 101.7280 160° South 338 389 9,900 -1,200 Descending FlightAware ADS-B
Wed 07:12:18 PM 2.9830 101.7440 161° South 318 366 9,500 -764 Descending FlightAware ADS-B
Wed 07:12:48 PM 2.9480 101.7570 160° South 300 345 9,200 -831 Descending FlightAware ADS-B
Wed 07:13:23 PM 2.9100 101.7700 161° South 289 333 8,600 -1,412 Descending FlightAware ADS-B
Wed 07:14:13 PM 2.8460 101.7930 160° South 285 328 7,200 -1,457 Descending FlightAware ADS-B
Wed 07:14:33 PM 2.8290 101.7990 161° South 283 326 6,900 -1,584 Descending FlightAware ADS-B
Wed 07:16:18 PM 2.6920 101.8510 159° South 271 312 3,900 -1,467 Descending FlightAware ADS-B
Wed 07:16:48 PM 2.6600 101.8630 159° South 259 298 3,600 -343 Descending FlightAware ADS-B
Wed 07:17:28 PM 2.6230 101.8770 159° South 253 291 3,500 -450 Descending FlightAware ADS-B
Wed 07:18:48 PM 2.5640 101.8320 217° Southwest 181 208 2,700 -417 Descending FlightAware ADS-B
Wed 07:19:23 PM 2.5780 101.8100 302° West 170 196 2,700  Level FlightAware ADS-B
Wed 07:19:53 PM 2.5970 101.7960 324° Northwest 171 197 2,700 -133 Level FlightAware ADS-B
Wed 07:20:08 PM 2.6100 101.7870 325° Northwest 170 196 2,600 -750 Descending FlightAware ADS-B
Wed 07:20:33 PM 2.6240 101.7780 327° Northwest 165 190 2,200 -857 Descending FlightAware ADS-B
Wed 07:21:18 PM 2.6530 101.7580 325° Northwest 141 162 1,600 -720 Descending FlightAware ADS-B
Wed 07:21:48 PM 2.6640 101.7510 328° Northwest 134 154 1,300 -600 Descending FlightAware ADS-B
Wed 07:24:00 PM 2.7456 101.7099 333° Northwest  Level Estimated
Wed 07:25:00 PM 2.7456 101.7099 236° Southwest  Level Estimated
Wed 07:26:00 PM 2.7456 101.7099 236° Southwest  Level Estimated
Wed 07:27:00 PM 2.7456 101.7099 236° Southwest  Level Estimated
Wed 07:28:00 PM 2.7456 101.7099 236° Southwest  Level Estimated
Wed 07:29:00 PM 2.7456 101.7099 236° Southwest  Level Estimated
Wed 07:30:00 PM 2.7456 101.7099 236° Southwest  Level Estimated
Wed 07:31:00 PM 2.7456 101.7099 236° Southwest  Level Estimated
Wed 07:32:00 PM 2.7456 101.7099 236° Southwest  Level Estimated
Wed 07:33:00 PM 2.7456 101.7099 236° Southwest  Level Estimated
Wed 07:34:00 PM 2.7456 101.7099 236° Southwest  Level Estimated

Login

Don't have an account? Register now (free) for customized features, flight alerts, and more!